<?xml version="1.0" encoding="UTF-8" standalone="no" ?>
<gpx xmlns="http://www.topografix.com/GPX/1/1" xmlns:xsi="http://www.w3.org/2001/XMLSchema-instance" xsi:schemaLocation="http://www.topografix.com/GPX/1/1 http://www.topografix.com/GPX/1/1/gpx.xsd" version="1.1" creator="VisuGPX - https://www.visugpx.com">
  <metadata>
    <name>Marcilhac - Pailhès - Marcilhac</name>
    <desc><![CDATA[File with points/tracks from Locus Map/4.27.2]]></desc>
  </metadata>
  <trk>
    <name><![CDATA[2025-02-23 12:51]]></name>
    <desc><![CDATA[T marxilhac]]></desc>
    <extensions>
      <line xmlns="http://www.topografix.com/GPX/gpx_style/0/2">
        <color>0000FF</color>
        <opacity>0.59</opacity>
        <width>6.0</width>
      </line>
    </extensions>
    <trkseg>
      <trkpt lat="44.56187" lon="1.77109">
        <ele>136.73</ele>
        <time>2025-02-23T11:51:40.177Z</time>
      </trkpt>
      <trkpt lat="44.56185" lon="1.77109">
        <ele>135.79</ele>
        <time>2025-02-23T11:52:03.195Z</time>
      </trkpt>
      <trkpt lat="44.56183" lon="1.77107">
        <ele>141.72</ele>
        <time>2025-02-23T11:52:13.211Z</time>
      </trkpt>
      <trkpt lat="44.56182" lon="1.77109">
        <ele>142.66</ele>
        <time>2025-02-23T11:52:24.209Z</time>
      </trkpt>
      <trkpt lat="44.56186" lon="1.77124">
        <ele>144.71</ele>
        <time>2025-02-23T11:52:35.203Z</time>
      </trkpt>
      <trkpt lat="44.56188" lon="1.77141">
        <ele>146.48</ele>
        <time>2025-02-23T11:52:46.207Z</time>
      </trkpt>
      <trkpt lat="44.5619" lon="1.77157">
        <ele>149.66</ele>
        <time>2025-02-23T11:52:57.186Z</time>
      </trkpt>
      <trkpt lat="44.5619" lon="1.77171">
        <ele>151.48</ele>
        <time>2025-02-23T11:53:07.209Z</time>
      </trkpt>
      <trkpt lat="44.56192" lon="1.77185">
        <ele>154.71</ele>
        <time>2025-02-23T11:53:17.786Z</time>
      </trkpt>
      <trkpt lat="44.56195" lon="1.772">
        <ele>157.71</ele>
        <time>2025-02-23T11:53:28.220Z</time>
      </trkpt>
      <trkpt lat="44.56198" lon="1.77213">
        <ele>160.72</ele>
        <time>2025-02-23T11:53:38.966Z</time>
      </trkpt>
      <trkpt lat="44.56201" lon="1.77218">
        <ele>162.72</ele>
        <time>2025-02-23T11:53:49.200Z</time>
      </trkpt>
      <trkpt lat="44.56205" lon="1.77231">
        <ele>165.47</ele>
        <time>2025-02-23T11:53:59.207Z</time>
      </trkpt>
      <trkpt lat="44.56206" lon="1.77231">
        <ele>163.85</ele>
        <time>2025-02-23T11:54:11.187Z</time>
      </trkpt>
      <trkpt lat="44.56207" lon="1.77231">
        <ele>163.72</ele>
        <time>2025-02-23T11:54:21.193Z</time>
      </trkpt>
      <trkpt lat="44.56208" lon="1.77229">
        <ele>162.79</ele>
        <time>2025-02-23T11:54:44.193Z</time>
      </trkpt>
      <trkpt lat="44.56207" lon="1.77227">
        <ele>161.72</ele>
        <time>2025-02-23T11:54:55.188Z</time>
      </trkpt>
      <trkpt lat="44.56209" lon="1.77228">
        <ele>160.72</ele>
        <time>2025-02-23T11:55:16.193Z</time>
      </trkpt>
      <trkpt lat="44.56211" lon="1.77238">
        <ele>161.49</ele>
        <time>2025-02-23T11:55:26.567Z</time>
      </trkpt>
      <trkpt lat="44.56215" lon="1.77254">
        <ele>159.79</ele>
        <time>2025-02-23T11:55:36.935Z</time>
      </trkpt>
      <trkpt lat="44.56217" lon="1.7727">
        <ele>157.72</ele>
        <time>2025-02-23T11:55:47.215Z</time>
      </trkpt>
      <trkpt lat="44.56218" lon="1.77288">
        <ele>156.72</ele>
        <time>2025-02-23T11:55:57.586Z</time>
      </trkpt>
      <trkpt lat="44.56219" lon="1.77306">
        <ele>158.72</ele>
        <time>2025-02-23T11:56:07.986Z</time>
      </trkpt>
      <trkpt lat="44.5622" lon="1.77324">
        <ele>158.72</ele>
        <time>2025-02-23T11:56:18.217Z</time>
      </trkpt>
      <trkpt lat="44.56219" lon="1.77342">
        <ele>158.72</ele>
        <time>2025-02-23T11:56:28.765Z</time>
      </trkpt>
      <trkpt lat="44.56221" lon="1.77358">
        <ele>160.72</ele>
        <time>2025-02-23T11:56:39.127Z</time>
      </trkpt>
      <trkpt lat="44.56221" lon="1.77375">
        <ele>159.72</ele>
        <time>2025-02-23T11:56:49.465Z</time>
      </trkpt>
      <trkpt lat="44.56221" lon="1.77392">
        <ele>158.49</ele>
        <time>2025-02-23T11:56:59.705Z</time>
      </trkpt>
      <trkpt lat="44.5622" lon="1.7741">
        <ele>159.72</ele>
        <time>2025-02-23T11:57:09.846Z</time>
      </trkpt>
      <trkpt lat="44.56218" lon="1.77428">
        <ele>158.72</ele>
        <time>2025-02-23T11:57:20.066Z</time>
      </trkpt>
      <trkpt lat="44.56217" lon="1.77446">
        <ele>159.66</ele>
        <time>2025-02-23T11:57:30.190Z</time>
      </trkpt>
      <trkpt lat="44.56215" lon="1.77464">
        <ele>158.72</ele>
        <time>2025-02-23T11:57:40.466Z</time>
      </trkpt>
      <trkpt lat="44.56211" lon="1.77482">
        <ele>159.72</ele>
        <time>2025-02-23T11:57:50.706Z</time>
      </trkpt>
      <trkpt lat="44.56205" lon="1.77499">
        <ele>159.72</ele>
        <time>2025-02-23T11:58:00.866Z</time>
      </trkpt>
      <trkpt lat="44.562" lon="1.77515">
        <ele>159.72</ele>
        <time>2025-02-23T11:58:10.966Z</time>
      </trkpt>
      <trkpt lat="44.56194" lon="1.77532">
        <ele>159.72</ele>
        <time>2025-02-23T11:58:21.026Z</time>
      </trkpt>
      <trkpt lat="44.56187" lon="1.77547">
        <ele>159.72</ele>
        <time>2025-02-23T11:58:31.166Z</time>
      </trkpt>
      <trkpt lat="44.56182" lon="1.77564">
        <ele>159.72</ele>
        <time>2025-02-23T11:58:41.167Z</time>
      </trkpt>
      <trkpt lat="44.56175" lon="1.77579">
        <ele>159.72</ele>
        <time>2025-02-23T11:58:51.315Z</time>
      </trkpt>
      <trkpt lat="44.56167" lon="1.77594">
        <ele>159.72</ele>
        <time>2025-02-23T11:59:01.429Z</time>
      </trkpt>
      <trkpt lat="44.56158" lon="1.7761">
        <ele>159.72</ele>
        <time>2025-02-23T11:59:11.446Z</time>
      </trkpt>
      <trkpt lat="44.56149" lon="1.77624">
        <ele>159.72</ele>
        <time>2025-02-23T11:59:21.566Z</time>
      </trkpt>
      <trkpt lat="44.56143" lon="1.77639">
        <ele>161.47</ele>
        <time>2025-02-23T11:59:31.712Z</time>
      </trkpt>
      <trkpt lat="44.56133" lon="1.77656">
        <ele>161.72</ele>
        <time>2025-02-23T11:59:41.806Z</time>
      </trkpt>
      <trkpt lat="44.56126" lon="1.77674">
        <ele>160.72</ele>
        <time>2025-02-23T11:59:51.946Z</time>
      </trkpt>
      <trkpt lat="44.56121" lon="1.77691">
        <ele>161.72</ele>
        <time>2025-02-23T12:00:02.086Z</time>
      </trkpt>
      <trkpt lat="44.56115" lon="1.77707">
        <ele>161.72</ele>
        <time>2025-02-23T12:00:12.726Z</time>
      </trkpt>
      <trkpt lat="44.56111" lon="1.77725">
        <ele>160.48</ele>
        <time>2025-02-23T12:00:22.836Z</time>
      </trkpt>
      <trkpt lat="44.56106" lon="1.77743">
        <ele>159.78</ele>
        <time>2025-02-23T12:00:33.385Z</time>
      </trkpt>
      <trkpt lat="44.56101" lon="1.77759">
        <ele>160.72</ele>
        <time>2025-02-23T12:00:43.556Z</time>
      </trkpt>
      <trkpt lat="44.56096" lon="1.77773">
        <ele>160.72</ele>
        <time>2025-02-23T12:00:53.675Z</time>
      </trkpt>
      <trkpt lat="44.56095" lon="1.77792">
        <ele>159.72</ele>
        <time>2025-02-23T12:01:03.965Z</time>
      </trkpt>
      <trkpt lat="44.56094" lon="1.77802">
        <ele>160.7</ele>
        <time>2025-02-23T12:01:14.214Z</time>
      </trkpt>
      <trkpt lat="44.56096" lon="1.778">
        <ele>159.72</ele>
        <time>2025-02-23T12:01:25.055Z</time>
      </trkpt>
      <trkpt lat="44.56102" lon="1.77787">
        <ele>160.72</ele>
        <time>2025-02-23T12:01:35.425Z</time>
      </trkpt>
      <trkpt lat="44.56108" lon="1.77774">
        <ele>160.72</ele>
        <time>2025-02-23T12:01:46.106Z</time>
      </trkpt>
      <trkpt lat="44.56114" lon="1.77762">
        <ele>158.97</ele>
        <time>2025-02-23T12:01:56.606Z</time>
      </trkpt>
      <trkpt lat="44.56119" lon="1.77754">
        <ele>158.72</ele>
        <time>2025-02-23T12:02:07.039Z</time>
      </trkpt>
      <trkpt lat="44.56125" lon="1.77741">
        <ele>160.71</ele>
        <time>2025-02-23T12:02:17.126Z</time>
      </trkpt>
      <trkpt lat="44.56129" lon="1.77746">
        <ele>162.47</ele>
        <time>2025-02-23T12:02:27.425Z</time>
      </trkpt>
      <trkpt lat="44.56128" lon="1.77757">
        <ele>164.7</ele>
        <time>2025-02-23T12:02:37.966Z</time>
      </trkpt>
      <trkpt lat="44.56129" lon="1.77775">
        <ele>164.97</ele>
        <time>2025-02-23T12:02:48.211Z</time>
      </trkpt>
      <trkpt lat="44.56129" lon="1.77788">
        <ele>166.71</ele>
        <time>2025-02-23T12:02:58.886Z</time>
      </trkpt>
      <trkpt lat="44.56128" lon="1.778">
        <ele>166.47</ele>
        <time>2025-02-23T12:03:09.006Z</time>
      </trkpt>
      <trkpt lat="44.56129" lon="1.7782">
        <ele>170.65</ele>
        <time>2025-02-23T12:03:19.215Z</time>
      </trkpt>
      <trkpt lat="44.56129" lon="1.77834">
        <ele>171.71</ele>
        <time>2025-02-23T12:03:29.897Z</time>
      </trkpt>
      <trkpt lat="44.5613" lon="1.77849">
        <ele>170.71</ele>
        <time>2025-02-23T12:03:39.925Z</time>
      </trkpt>
      <trkpt lat="44.56131" lon="1.77864">
        <ele>172.46</ele>
        <time>2025-02-23T12:03:50.110Z</time>
      </trkpt>
      <trkpt lat="44.5613" lon="1.77871">
        <ele>175.71</ele>
        <time>2025-02-23T12:04:00.626Z</time>
      </trkpt>
      <trkpt lat="44.56131" lon="1.77885">
        <ele>175.71</ele>
        <time>2025-02-23T12:04:10.905Z</time>
      </trkpt>
      <trkpt lat="44.5613" lon="1.77897">
        <ele>176.46</ele>
        <time>2025-02-23T12:04:21.487Z</time>
      </trkpt>
      <trkpt lat="44.56131" lon="1.77913">
        <ele>176.71</ele>
        <time>2025-02-23T12:04:31.926Z</time>
      </trkpt>
      <trkpt lat="44.5613" lon="1.77929">
        <ele>177.71</ele>
        <time>2025-02-23T12:04:42.195Z</time>
      </trkpt>
      <trkpt lat="44.56127" lon="1.77945">
        <ele>178.71</ele>
        <time>2025-02-23T12:04:52.826Z</time>
      </trkpt>
      <trkpt lat="44.56124" lon="1.77962">
        <ele>180.65</ele>
        <time>2025-02-23T12:05:02.847Z</time>
      </trkpt>
      <trkpt lat="44.56125" lon="1.77978">
        <ele>181.71</ele>
        <time>2025-02-23T12:05:13.211Z</time>
      </trkpt>
      <trkpt lat="44.5613" lon="1.7799">
        <ele>181.7</ele>
        <time>2025-02-23T12:05:23.645Z</time>
      </trkpt>
      <trkpt lat="44.56136" lon="1.78">
        <ele>181.71</ele>
        <time>2025-02-23T12:05:33.825Z</time>
      </trkpt>
      <trkpt lat="44.56141" lon="1.78013">
        <ele>179.71</ele>
        <time>2025-02-23T12:05:43.825Z</time>
      </trkpt>
      <trkpt lat="44.56149" lon="1.78025">
        <ele>180.71</ele>
        <time>2025-02-23T12:05:54.217Z</time>
      </trkpt>
      <trkpt lat="44.56154" lon="1.78016">
        <ele>183.71</ele>
        <time>2025-02-23T12:06:04.645Z</time>
      </trkpt>
      <trkpt lat="44.56157" lon="1.78009">
        <ele>187.46</ele>
        <time>2025-02-23T12:06:15.187Z</time>
      </trkpt>
      <trkpt lat="44.56159" lon="1.77996">
        <ele>189.71</ele>
        <time>2025-02-23T12:06:25.615Z</time>
      </trkpt>
      <trkpt lat="44.56161" lon="1.77992">
        <ele>191.71</ele>
        <time>2025-02-23T12:06:36.211Z</time>
      </trkpt>
      <trkpt lat="44.56163" lon="1.77987">
        <ele>193.46</ele>
        <time>2025-02-23T12:06:46.214Z</time>
      </trkpt>
      <trkpt lat="44.56167" lon="1.77981">
        <ele>193.71</ele>
        <time>2025-02-23T12:06:56.646Z</time>
      </trkpt>
      <trkpt lat="44.5617" lon="1.77974">
        <ele>195.71</ele>
        <time>2025-02-23T12:07:07.035Z</time>
      </trkpt>
      <trkpt lat="44.56172" lon="1.77968">
        <ele>196.71</ele>
        <time>2025-02-23T12:07:17.209Z</time>
      </trkpt>
      <trkpt lat="44.56174" lon="1.77959">
        <ele>198.71</ele>
        <time>2025-02-23T12:07:28.186Z</time>
      </trkpt>
      <trkpt lat="44.56178" lon="1.77952">
        <ele>199.71</ele>
        <time>2025-02-23T12:07:38.486Z</time>
      </trkpt>
      <trkpt lat="44.5618" lon="1.77943">
        <ele>201.71</ele>
        <time>2025-02-23T12:07:49.165Z</time>
      </trkpt>
      <trkpt lat="44.56182" lon="1.77935">
        <ele>204.46</ele>
        <time>2025-02-23T12:07:59.966Z</time>
      </trkpt>
      <trkpt lat="44.56183" lon="1.77928">
        <ele>205.71</ele>
        <time>2025-02-23T12:08:09.986Z</time>
      </trkpt>
      <trkpt lat="44.56184" lon="1.77917">
        <ele>206.71</ele>
        <time>2025-02-23T12:08:20.209Z</time>
      </trkpt>
      <trkpt lat="44.56185" lon="1.77909">
        <ele>209.7</ele>
        <time>2025-02-23T12:08:30.586Z</time>
      </trkpt>
      <trkpt lat="44.56187" lon="1.77903">
        <ele>210.71</ele>
        <time>2025-02-23T12:08:40.866Z</time>
      </trkpt>
      <trkpt lat="44.5619" lon="1.77894">
        <ele>211.71</ele>
        <time>2025-02-23T12:08:51.245Z</time>
      </trkpt>
      <trkpt lat="44.56196" lon="1.77888">
        <ele>212.71</ele>
        <time>2025-02-23T12:09:01.926Z</time>
      </trkpt>
      <trkpt lat="44.56202" lon="1.77886">
        <ele>213.9</ele>
        <time>2025-02-23T12:09:12.217Z</time>
      </trkpt>
      <trkpt lat="44.56208" lon="1.77883">
        <ele>213.71</ele>
        <time>2025-02-23T12:09:23.127Z</time>
      </trkpt>
      <trkpt lat="44.56213" lon="1.77882">
        <ele>215.71</ele>
        <time>2025-02-23T12:09:33.213Z</time>
      </trkpt>
      <trkpt lat="44.56214" lon="1.77882">
        <ele>216.65</ele>
        <time>2025-02-23T12:09:44.212Z</time>
      </trkpt>
      <trkpt lat="44.56215" lon="1.77882">
        <ele>216.71</ele>
        <time>2025-02-23T12:11:39.192Z</time>
      </trkpt>
      <trkpt lat="44.56217" lon="1.77882">
        <ele>218.71</ele>
        <time>2025-02-23T12:11:49.209Z</time>
      </trkpt>
      <trkpt lat="44.56218" lon="1.77881">
        <ele>219.7</ele>
        <time>2025-02-23T12:12:02.695Z</time>
      </trkpt>
      <trkpt lat="44.56227" lon="1.77876">
        <ele>220.71</ele>
        <time>2025-02-23T12:12:13.066Z</time>
      </trkpt>
      <trkpt lat="44.56236" lon="1.77872">
        <ele>221.71</ele>
        <time>2025-02-23T12:12:23.566Z</time>
      </trkpt>
      <trkpt lat="44.56249" lon="1.77867">
        <ele>223.7</ele>
        <time>2025-02-23T12:12:33.765Z</time>
      </trkpt>
      <trkpt lat="44.56258" lon="1.77865">
        <ele>224.71</ele>
        <time>2025-02-23T12:12:44.167Z</time>
      </trkpt>
      <trkpt lat="44.56263" lon="1.77862">
        <ele>226.65</ele>
        <time>2025-02-23T12:12:54.546Z</time>
      </trkpt>
      <trkpt lat="44.56271" lon="1.77855">
        <ele>226.71</ele>
        <time>2025-02-23T12:13:05.095Z</time>
      </trkpt>
      <trkpt lat="44.56282" lon="1.77852">
        <ele>228.71</ele>
        <time>2025-02-23T12:13:15.205Z</time>
      </trkpt>
      <trkpt lat="44.56295" lon="1.77846">
        <ele>229.65</ele>
        <time>2025-02-23T12:13:26.146Z</time>
      </trkpt>
      <trkpt lat="44.56308" lon="1.77843">
        <ele>231.65</ele>
        <time>2025-02-23T12:13:36.575Z</time>
      </trkpt>
      <trkpt lat="44.56317" lon="1.77844">
        <ele>231.73</ele>
        <time>2025-02-23T12:13:46.986Z</time>
      </trkpt>
      <trkpt lat="44.56324" lon="1.77844">
        <ele>233.71</ele>
        <time>2025-02-23T12:13:57.210Z</time>
      </trkpt>
      <trkpt lat="44.56329" lon="1.77837">
        <ele>236.7</ele>
        <time>2025-02-23T12:14:07.705Z</time>
      </trkpt>
      <trkpt lat="44.56332" lon="1.7783">
        <ele>238.72</ele>
        <time>2025-02-23T12:14:17.925Z</time>
      </trkpt>
      <trkpt lat="44.56337" lon="1.7782">
        <ele>239.95</ele>
        <time>2025-02-23T12:14:28.646Z</time>
      </trkpt>
      <trkpt lat="44.56344" lon="1.77809">
        <ele>243.7</ele>
        <time>2025-02-23T12:14:39.247Z</time>
      </trkpt>
      <trkpt lat="44.56351" lon="1.778">
        <ele>246.72</ele>
        <time>2025-02-23T12:14:49.486Z</time>
      </trkpt>
      <trkpt lat="44.56355" lon="1.7779">
        <ele>248.7</ele>
        <time>2025-02-23T12:15:00.033Z</time>
      </trkpt>
      <trkpt lat="44.56358" lon="1.7778">
        <ele>249.72</ele>
        <time>2025-02-23T12:15:10.085Z</time>
      </trkpt>
      <trkpt lat="44.56363" lon="1.77768">
        <ele>251.47</ele>
        <time>2025-02-23T12:15:20.666Z</time>
      </trkpt>
      <trkpt lat="44.56372" lon="1.77761">
        <ele>252.72</ele>
        <time>2025-02-23T12:15:31.074Z</time>
      </trkpt>
      <trkpt lat="44.56382" lon="1.77756">
        <ele>254.65</ele>
        <time>2025-02-23T12:15:41.126Z</time>
      </trkpt>
      <trkpt lat="44.5639" lon="1.77751">
        <ele>257.65</ele>
        <time>2025-02-23T12:15:51.130Z</time>
      </trkpt>
      <trkpt lat="44.56399" lon="1.77749">
        <ele>258.72</ele>
        <time>2025-02-23T12:16:01.216Z</time>
      </trkpt>
      <trkpt lat="44.56411" lon="1.77744">
        <ele>260.72</ele>
        <time>2025-02-23T12:16:12.106Z</time>
      </trkpt>
      <trkpt lat="44.56421" lon="1.77744">
        <ele>262.72</ele>
        <time>2025-02-23T12:16:22.255Z</time>
      </trkpt>
      <trkpt lat="44.56432" lon="1.77744">
        <ele>262.72</ele>
        <time>2025-02-23T12:16:32.706Z</time>
      </trkpt>
      <trkpt lat="44.56445" lon="1.77741">
        <ele>264.72</ele>
        <time>2025-02-23T12:16:43.248Z</time>
      </trkpt>
      <trkpt lat="44.56457" lon="1.77738">
        <ele>265.72</ele>
        <time>2025-02-23T12:16:53.826Z</time>
      </trkpt>
      <trkpt lat="44.56468" lon="1.77736">
        <ele>265.78</ele>
        <time>2025-02-23T12:17:04.066Z</time>
      </trkpt>
      <trkpt lat="44.56475" lon="1.77728">
        <ele>267.72</ele>
        <time>2025-02-23T12:17:14.146Z</time>
      </trkpt>
      <trkpt lat="44.56485" lon="1.77726">
        <ele>268.65</ele>
        <time>2025-02-23T12:17:24.235Z</time>
      </trkpt>
      <trkpt lat="44.56495" lon="1.77722">
        <ele>268.72</ele>
        <time>2025-02-23T12:17:34.485Z</time>
      </trkpt>
      <trkpt lat="44.56505" lon="1.77714">
        <ele>269.72</ele>
        <time>2025-02-23T12:17:44.966Z</time>
      </trkpt>
      <trkpt lat="44.56515" lon="1.77707">
        <ele>270.72</ele>
        <time>2025-02-23T12:17:54.987Z</time>
      </trkpt>
      <trkpt lat="44.56524" lon="1.777">
        <ele>270.97</ele>
        <time>2025-02-23T12:18:05.555Z</time>
      </trkpt>
      <trkpt lat="44.56532" lon="1.77691">
        <ele>270.78</ele>
        <time>2025-02-23T12:18:16.106Z</time>
      </trkpt>
      <trkpt lat="44.56544" lon="1.77684">
        <ele>273.7</ele>
        <time>2025-02-23T12:18:26.826Z</time>
      </trkpt>
      <trkpt lat="44.56553" lon="1.77678">
        <ele>274.72</ele>
        <time>2025-02-23T12:18:36.906Z</time>
      </trkpt>
      <trkpt lat="44.56564" lon="1.77671">
        <ele>274.72</ele>
        <time>2025-02-23T12:18:47.446Z</time>
      </trkpt>
      <trkpt lat="44.56574" lon="1.7767">
        <ele>276.72</ele>
        <time>2025-02-23T12:18:57.626Z</time>
      </trkpt>
      <trkpt lat="44.56584" lon="1.77662">
        <ele>277.7</ele>
        <time>2025-02-23T12:19:07.906Z</time>
      </trkpt>
      <trkpt lat="44.56593" lon="1.77654">
        <ele>279.72</ele>
        <time>2025-02-23T12:19:17.925Z</time>
      </trkpt>
      <trkpt lat="44.56605" lon="1.77645">
        <ele>281.47</ele>
        <time>2025-02-23T12:19:28.217Z</time>
      </trkpt>
      <trkpt lat="44.56613" lon="1.77641">
        <ele>283.72</ele>
        <time>2025-02-23T12:19:38.686Z</time>
      </trkpt>
      <trkpt lat="44.56621" lon="1.77635">
        <ele>286.7</ele>
        <time>2025-02-23T12:19:48.986Z</time>
      </trkpt>
      <trkpt lat="44.56623" lon="1.77632">
        <ele>287.72</ele>
        <time>2025-02-23T12:19:59.216Z</time>
      </trkpt>
      <trkpt lat="44.56625" lon="1.77632">
        <ele>288.7</ele>
        <time>2025-02-23T12:20:55.195Z</time>
      </trkpt>
      <trkpt lat="44.56632" lon="1.77629">
        <ele>286.73</ele>
        <time>2025-02-23T12:21:05.726Z</time>
      </trkpt>
      <trkpt lat="44.56641" lon="1.77628">
        <ele>285.72</ele>
        <time>2025-02-23T12:21:16.195Z</time>
      </trkpt>
      <trkpt lat="44.56651" lon="1.77629">
        <ele>284.78</ele>
        <time>2025-02-23T12:21:26.465Z</time>
      </trkpt>
      <trkpt lat="44.56661" lon="1.77628">
        <ele>284.47</ele>
        <time>2025-02-23T12:21:36.647Z</time>
      </trkpt>
      <trkpt lat="44.56673" lon="1.77627">
        <ele>284.72</ele>
        <time>2025-02-23T12:21:46.806Z</time>
      </trkpt>
      <trkpt lat="44.56685" lon="1.77624">
        <ele>283.78</ele>
        <time>2025-02-23T12:21:57.187Z</time>
      </trkpt>
      <trkpt lat="44.56693" lon="1.77619">
        <ele>283.73</ele>
        <time>2025-02-23T12:22:07.725Z</time>
      </trkpt>
      <trkpt lat="44.56706" lon="1.77613">
        <ele>285.72</ele>
        <time>2025-02-23T12:22:18.210Z</time>
      </trkpt>
      <trkpt lat="44.56719" lon="1.7761">
        <ele>284.72</ele>
        <time>2025-02-23T12:22:28.255Z</time>
      </trkpt>
      <trkpt lat="44.5673" lon="1.77605">
        <ele>285.72</ele>
        <time>2025-02-23T12:22:38.525Z</time>
      </trkpt>
      <trkpt lat="44.56742" lon="1.77603">
        <ele>287.66</ele>
        <time>2025-02-23T12:22:49.210Z</time>
      </trkpt>
      <trkpt lat="44.56752" lon="1.77602">
        <ele>288.72</ele>
        <time>2025-02-23T12:22:59.545Z</time>
      </trkpt>
      <trkpt lat="44.5676" lon="1.77601">
        <ele>289.72</ele>
        <time>2025-02-23T12:23:10.225Z</time>
      </trkpt>
      <trkpt lat="44.56773" lon="1.776">
        <ele>289.72</ele>
        <time>2025-02-23T12:23:20.925Z</time>
      </trkpt>
      <trkpt lat="44.56784" lon="1.77601">
        <ele>289.72</ele>
        <time>2025-02-23T12:23:30.985Z</time>
      </trkpt>
      <trkpt lat="44.56798" lon="1.77602">
        <ele>290.72</ele>
        <time>2025-02-23T12:23:41.325Z</time>
      </trkpt>
      <trkpt lat="44.56811" lon="1.77602">
        <ele>291.72</ele>
        <time>2025-02-23T12:23:51.737Z</time>
      </trkpt>
      <trkpt lat="44.56824" lon="1.77604">
        <ele>292.7</ele>
        <time>2025-02-23T12:24:02.065Z</time>
      </trkpt>
      <trkpt lat="44.56835" lon="1.77605">
        <ele>293.72</ele>
        <time>2025-02-23T12:24:12.375Z</time>
      </trkpt>
      <trkpt lat="44.56846" lon="1.77601">
        <ele>291.72</ele>
        <time>2025-02-23T12:24:22.425Z</time>
      </trkpt>
      <trkpt lat="44.56862" lon="1.776">
        <ele>291.72</ele>
        <time>2025-02-23T12:24:33.205Z</time>
      </trkpt>
      <trkpt lat="44.56871" lon="1.77597">
        <ele>291.72</ele>
        <time>2025-02-23T12:24:43.217Z</time>
      </trkpt>
      <trkpt lat="44.56872" lon="1.77595">
        <ele>293.72</ele>
        <time>2025-02-23T12:24:54.026Z</time>
      </trkpt>
      <trkpt lat="44.56882" lon="1.77595">
        <ele>295.72</ele>
        <time>2025-02-23T12:25:04.526Z</time>
      </trkpt>
      <trkpt lat="44.56894" lon="1.77594">
        <ele>294.72</ele>
        <time>2025-02-23T12:25:14.946Z</time>
      </trkpt>
      <trkpt lat="44.56905" lon="1.77595">
        <ele>293.97</ele>
        <time>2025-02-23T12:25:25.200Z</time>
      </trkpt>
      <trkpt lat="44.56917" lon="1.77593">
        <ele>294.72</ele>
        <time>2025-02-23T12:25:35.906Z</time>
      </trkpt>
      <trkpt lat="44.56928" lon="1.77593">
        <ele>293.72</ele>
        <time>2025-02-23T12:25:46.106Z</time>
      </trkpt>
      <trkpt lat="44.56938" lon="1.77593">
        <ele>291.72</ele>
        <time>2025-02-23T12:25:56.515Z</time>
      </trkpt>
      <trkpt lat="44.56947" lon="1.77592">
        <ele>290.74</ele>
        <time>2025-02-23T12:26:06.925Z</time>
      </trkpt>
      <trkpt lat="44.56958" lon="1.77591">
        <ele>290.97</ele>
        <time>2025-02-23T12:26:17.345Z</time>
      </trkpt>
      <trkpt lat="44.5697" lon="1.77593">
        <ele>290.72</ele>
        <time>2025-02-23T12:26:28.106Z</time>
      </trkpt>
      <trkpt lat="44.56978" lon="1.77589">
        <ele>290.72</ele>
        <time>2025-02-23T12:26:38.640Z</time>
      </trkpt>
      <trkpt lat="44.56988" lon="1.77593">
        <ele>291.72</ele>
        <time>2025-02-23T12:26:49.066Z</time>
      </trkpt>
      <trkpt lat="44.56999" lon="1.77594">
        <ele>290.97</ele>
        <time>2025-02-23T12:26:59.219Z</time>
      </trkpt>
      <trkpt lat="44.57011" lon="1.77595">
        <ele>289.72</ele>
        <time>2025-02-23T12:27:09.826Z</time>
      </trkpt>
      <trkpt lat="44.57023" lon="1.77597">
        <ele>288.72</ele>
        <time>2025-02-23T12:27:20.188Z</time>
      </trkpt>
      <trkpt lat="44.57036" lon="1.77594">
        <ele>288.72</ele>
        <time>2025-02-23T12:27:30.725Z</time>
      </trkpt>
      <trkpt lat="44.57048" lon="1.77591">
        <ele>285.78</ele>
        <time>2025-02-23T12:27:41.228Z</time>
      </trkpt>
      <trkpt lat="44.57059" lon="1.77588">
        <ele>285.72</ele>
        <time>2025-02-23T12:27:51.726Z</time>
      </trkpt>
      <trkpt lat="44.5707" lon="1.77586">
        <ele>285.72</ele>
        <time>2025-02-23T12:28:01.726Z</time>
      </trkpt>
      <trkpt lat="44.57082" lon="1.77585">
        <ele>285.47</ele>
        <time>2025-02-23T12:28:11.806Z</time>
      </trkpt>
      <trkpt lat="44.57094" lon="1.77586">
        <ele>286.72</ele>
        <time>2025-02-23T12:28:22.106Z</time>
      </trkpt>
      <trkpt lat="44.57108" lon="1.77586">
        <ele>286.72</ele>
        <time>2025-02-23T12:28:32.489Z</time>
      </trkpt>
      <trkpt lat="44.57118" lon="1.77583">
        <ele>287.47</ele>
        <time>2025-02-23T12:28:43.206Z</time>
      </trkpt>
      <trkpt lat="44.5712" lon="1.77584">
        <ele>287.72</ele>
        <time>2025-02-23T12:28:53.209Z</time>
      </trkpt>
      <trkpt lat="44.57127" lon="1.77576">
        <ele>289.72</ele>
        <time>2025-02-23T12:29:03.806Z</time>
      </trkpt>
      <trkpt lat="44.57141" lon="1.77572">
        <ele>289.72</ele>
        <time>2025-02-23T12:29:14.187Z</time>
      </trkpt>
      <trkpt lat="44.57153" lon="1.77574">
        <ele>290.97</ele>
        <time>2025-02-23T12:29:24.526Z</time>
      </trkpt>
      <trkpt lat="44.57163" lon="1.77574">
        <ele>291.66</ele>
        <time>2025-02-23T12:29:35.201Z</time>
      </trkpt>
      <trkpt lat="44.57176" lon="1.77571">
        <ele>291.47</ele>
        <time>2025-02-23T12:29:45.646Z</time>
      </trkpt>
      <trkpt lat="44.57186" lon="1.77569">
        <ele>293.47</ele>
        <time>2025-02-23T12:29:56.227Z</time>
      </trkpt>
      <trkpt lat="44.57195" lon="1.77566">
        <ele>295.71</ele>
        <time>2025-02-23T12:30:06.706Z</time>
      </trkpt>
      <trkpt lat="44.57209" lon="1.77562">
        <ele>294.72</ele>
        <time>2025-02-23T12:30:17.135Z</time>
      </trkpt>
      <trkpt lat="44.57222" lon="1.77553">
        <ele>294.72</ele>
        <time>2025-02-23T12:30:27.255Z</time>
      </trkpt>
      <trkpt lat="44.57236" lon="1.77544">
        <ele>296.72</ele>
        <time>2025-02-23T12:30:37.255Z</time>
      </trkpt>
      <trkpt lat="44.5725" lon="1.77533">
        <ele>299.72</ele>
        <time>2025-02-23T12:30:47.766Z</time>
      </trkpt>
      <trkpt lat="44.57262" lon="1.77524">
        <ele>299.72</ele>
        <time>2025-02-23T12:30:57.827Z</time>
      </trkpt>
      <trkpt lat="44.57266" lon="1.77519">
        <ele>302.65</ele>
        <time>2025-02-23T12:31:08.187Z</time>
      </trkpt>
      <trkpt lat="44.57267" lon="1.77519">
        <ele>303.47</ele>
        <time>2025-02-23T12:31:54.204Z</time>
      </trkpt>
      <trkpt lat="44.57278" lon="1.77508">
        <ele>306.66</ele>
        <time>2025-02-23T12:32:05.168Z</time>
      </trkpt>
      <trkpt lat="44.57289" lon="1.77497">
        <ele>308.72</ele>
        <time>2025-02-23T12:32:15.213Z</time>
      </trkpt>
      <trkpt lat="44.57301" lon="1.77488">
        <ele>309.72</ele>
        <time>2025-02-23T12:32:25.506Z</time>
      </trkpt>
      <trkpt lat="44.57312" lon="1.77481">
        <ele>311.72</ele>
        <time>2025-02-23T12:32:35.947Z</time>
      </trkpt>
      <trkpt lat="44.57323" lon="1.77475">
        <ele>311.72</ele>
        <time>2025-02-23T12:32:46.211Z</time>
      </trkpt>
      <trkpt lat="44.57337" lon="1.77468">
        <ele>311.48</ele>
        <time>2025-02-23T12:32:56.924Z</time>
      </trkpt>
      <trkpt lat="44.57348" lon="1.77463">
        <ele>309.79</ele>
        <time>2025-02-23T12:33:07.146Z</time>
      </trkpt>
      <trkpt lat="44.57358" lon="1.7745">
        <ele>310.72</ele>
        <time>2025-02-23T12:33:17.235Z</time>
      </trkpt>
      <trkpt lat="44.57365" lon="1.77438">
        <ele>311.47</ele>
        <time>2025-02-23T12:33:27.235Z</time>
      </trkpt>
      <trkpt lat="44.57373" lon="1.77427">
        <ele>313.71</ele>
        <time>2025-02-23T12:33:37.549Z</time>
      </trkpt>
      <trkpt lat="44.57381" lon="1.77414">
        <ele>314.72</ele>
        <time>2025-02-23T12:33:48.026Z</time>
      </trkpt>
      <trkpt lat="44.5739" lon="1.774">
        <ele>312.72</ele>
        <time>2025-02-23T12:33:58.407Z</time>
      </trkpt>
      <trkpt lat="44.57398" lon="1.77385">
        <ele>313.72</ele>
        <time>2025-02-23T12:34:09.066Z</time>
      </trkpt>
      <trkpt lat="44.57406" lon="1.77371">
        <ele>312.72</ele>
        <time>2025-02-23T12:34:19.606Z</time>
      </trkpt>
      <trkpt lat="44.57406" lon="1.77369">
        <ele>311.72</ele>
        <time>2025-02-23T12:34:45.210Z</time>
      </trkpt>
      <trkpt lat="44.5741" lon="1.77355">
        <ele>309.72</ele>
        <time>2025-02-23T12:34:55.218Z</time>
      </trkpt>
      <trkpt lat="44.57417" lon="1.7734">
        <ele>309.72</ele>
        <time>2025-02-23T12:35:05.236Z</time>
      </trkpt>
      <trkpt lat="44.57424" lon="1.77323">
        <ele>308.74</ele>
        <time>2025-02-23T12:35:16.215Z</time>
      </trkpt>
      <trkpt lat="44.5743" lon="1.77309">
        <ele>308.72</ele>
        <time>2025-02-23T12:35:26.526Z</time>
      </trkpt>
      <trkpt lat="44.57438" lon="1.77294">
        <ele>307.73</ele>
        <time>2025-02-23T12:35:36.946Z</time>
      </trkpt>
      <trkpt lat="44.57442" lon="1.77277">
        <ele>308.73</ele>
        <time>2025-02-23T12:35:47.165Z</time>
      </trkpt>
      <trkpt lat="44.57448" lon="1.7726">
        <ele>307.73</ele>
        <time>2025-02-23T12:35:57.595Z</time>
      </trkpt>
      <trkpt lat="44.57453" lon="1.77243">
        <ele>307.48</ele>
        <time>2025-02-23T12:36:07.781Z</time>
      </trkpt>
      <trkpt lat="44.57457" lon="1.77226">
        <ele>307.67</ele>
        <time>2025-02-23T12:36:18.234Z</time>
      </trkpt>
      <trkpt lat="44.5746" lon="1.77206">
        <ele>305.79</ele>
        <time>2025-02-23T12:36:28.936Z</time>
      </trkpt>
      <trkpt lat="44.57464" lon="1.77189">
        <ele>306.73</ele>
        <time>2025-02-23T12:36:39.213Z</time>
      </trkpt>
      <trkpt lat="44.57468" lon="1.77172">
        <ele>306.73</ele>
        <time>2025-02-23T12:36:49.525Z</time>
      </trkpt>
      <trkpt lat="44.5747" lon="1.77155">
        <ele>305.73</ele>
        <time>2025-02-23T12:36:59.806Z</time>
      </trkpt>
      <trkpt lat="44.57471" lon="1.77138">
        <ele>305.73</ele>
        <time>2025-02-23T12:37:09.806Z</time>
      </trkpt>
      <trkpt lat="44.57473" lon="1.77123">
        <ele>304.49</ele>
        <time>2025-02-23T12:37:20.207Z</time>
      </trkpt>
      <trkpt lat="44.57477" lon="1.7712">
        <ele>305.71</ele>
        <time>2025-02-23T12:37:30.213Z</time>
      </trkpt>
      <trkpt lat="44.57485" lon="1.77115">
        <ele>305.54</ele>
        <time>2025-02-23T12:37:40.345Z</time>
      </trkpt>
      <trkpt lat="44.57492" lon="1.77107">
        <ele>305.73</ele>
        <time>2025-02-23T12:37:51.146Z</time>
      </trkpt>
      <trkpt lat="44.57492" lon="1.77106">
        <ele>306.73</ele>
        <time>2025-02-23T12:38:01.565Z</time>
      </trkpt>
      <trkpt lat="44.57492" lon="1.77108">
        <ele>305.73</ele>
        <time>2025-02-23T12:38:12.114Z</time>
      </trkpt>
      <trkpt lat="44.57493" lon="1.77109">
        <ele>308.98</ele>
        <time>2025-02-23T13:00:04.192Z</time>
      </trkpt>
      <trkpt lat="44.57492" lon="1.77109">
        <ele>307.73</ele>
        <time>2025-02-23T13:00:18.203Z</time>
      </trkpt>
      <trkpt lat="44.57493" lon="1.77108">
        <ele>309.73</ele>
        <time>2025-02-23T13:00:29.196Z</time>
      </trkpt>
      <trkpt lat="44.57494" lon="1.77107">
        <ele>310.48</ele>
        <time>2025-02-23T13:00:40.191Z</time>
      </trkpt>
      <trkpt lat="44.57491" lon="1.77096">
        <ele>311.92</ele>
        <time>2025-02-23T13:00:50.203Z</time>
      </trkpt>
      <trkpt lat="44.57484" lon="1.77083">
        <ele>312.48</ele>
        <time>2025-02-23T13:01:01.186Z</time>
      </trkpt>
      <trkpt lat="44.5748" lon="1.7707">
        <ele>312.73</ele>
        <time>2025-02-23T13:01:11.494Z</time>
      </trkpt>
      <trkpt lat="44.57475" lon="1.77053">
        <ele>312.92</ele>
        <time>2025-02-23T13:01:22.134Z</time>
      </trkpt>
      <trkpt lat="44.57469" lon="1.77037">
        <ele>310.79</ele>
        <time>2025-02-23T13:01:32.176Z</time>
      </trkpt>
      <trkpt lat="44.57463" lon="1.77024">
        <ele>312.67</ele>
        <time>2025-02-23T13:01:42.201Z</time>
      </trkpt>
      <trkpt lat="44.57456" lon="1.77018">
        <ele>311.73</ele>
        <time>2025-02-23T13:01:52.883Z</time>
      </trkpt>
      <trkpt lat="44.57448" lon="1.77003">
        <ele>309.75</ele>
        <time>2025-02-23T13:02:03.192Z</time>
      </trkpt>
      <trkpt lat="44.57442" lon="1.76989">
        <ele>308.73</ele>
        <time>2025-02-23T13:02:13.223Z</time>
      </trkpt>
      <trkpt lat="44.57437" lon="1.76974">
        <ele>309.73</ele>
        <time>2025-02-23T13:02:24.176Z</time>
      </trkpt>
      <trkpt lat="44.57434" lon="1.76956">
        <ele>309.98</ele>
        <time>2025-02-23T13:02:35.095Z</time>
      </trkpt>
      <trkpt lat="44.57433" lon="1.76937">
        <ele>309.73</ele>
        <time>2025-02-23T13:02:45.934Z</time>
      </trkpt>
      <trkpt lat="44.57431" lon="1.76919">
        <ele>308.98</ele>
        <time>2025-02-23T13:02:56.178Z</time>
      </trkpt>
      <trkpt lat="44.57429" lon="1.76901">
        <ele>308.73</ele>
        <time>2025-02-23T13:03:06.705Z</time>
      </trkpt>
      <trkpt lat="44.57429" lon="1.76882">
        <ele>308.73</ele>
        <time>2025-02-23T13:03:17.230Z</time>
      </trkpt>
      <trkpt lat="44.57429" lon="1.76864">
        <ele>307.79</ele>
        <time>2025-02-23T13:03:27.825Z</time>
      </trkpt>
      <trkpt lat="44.57428" lon="1.76847">
        <ele>308.73</ele>
        <time>2025-02-23T13:03:38.220Z</time>
      </trkpt>
      <trkpt lat="44.57427" lon="1.7683">
        <ele>309.67</ele>
        <time>2025-02-23T13:03:48.695Z</time>
      </trkpt>
      <trkpt lat="44.57429" lon="1.76813">
        <ele>310.73</ele>
        <time>2025-02-23T13:03:59.223Z</time>
      </trkpt>
      <trkpt lat="44.57429" lon="1.76797">
        <ele>311.73</ele>
        <time>2025-02-23T13:04:10.235Z</time>
      </trkpt>
      <trkpt lat="44.57429" lon="1.76783">
        <ele>310.73</ele>
        <time>2025-02-23T13:04:20.684Z</time>
      </trkpt>
      <trkpt lat="44.57428" lon="1.76777">
        <ele>309.73</ele>
        <time>2025-02-23T13:04:31.172Z</time>
      </trkpt>
      <trkpt lat="44.57428" lon="1.76775">
        <ele>307.86</ele>
        <time>2025-02-23T13:04:48.193Z</time>
      </trkpt>
      <trkpt lat="44.57427" lon="1.76774">
        <ele>307.73</ele>
        <time>2025-02-23T13:04:58.210Z</time>
      </trkpt>
      <trkpt lat="44.57427" lon="1.76771">
        <ele>307.73</ele>
        <time>2025-02-23T13:05:09.183Z</time>
      </trkpt>
      <trkpt lat="44.57435" lon="1.76757">
        <ele>307.73</ele>
        <time>2025-02-23T13:05:19.191Z</time>
      </trkpt>
      <trkpt lat="44.57441" lon="1.76748">
        <ele>306.73</ele>
        <time>2025-02-23T13:05:29.514Z</time>
      </trkpt>
      <trkpt lat="44.5745" lon="1.76736">
        <ele>305.74</ele>
        <time>2025-02-23T13:05:39.625Z</time>
      </trkpt>
      <trkpt lat="44.57455" lon="1.76727">
        <ele>304.8</ele>
        <time>2025-02-23T13:05:50.176Z</time>
      </trkpt>
      <trkpt lat="44.57467" lon="1.76715">
        <ele>304.73</ele>
        <time>2025-02-23T13:06:00.945Z</time>
      </trkpt>
      <trkpt lat="44.57476" lon="1.76702">
        <ele>305.67</ele>
        <time>2025-02-23T13:06:11.207Z</time>
      </trkpt>
      <trkpt lat="44.57487" lon="1.7669">
        <ele>304.75</ele>
        <time>2025-02-23T13:06:21.383Z</time>
      </trkpt>
      <trkpt lat="44.57496" lon="1.76677">
        <ele>305.74</ele>
        <time>2025-02-23T13:06:32.191Z</time>
      </trkpt>
      <trkpt lat="44.57507" lon="1.76664">
        <ele>305.74</ele>
        <time>2025-02-23T13:06:43.185Z</time>
      </trkpt>
      <trkpt lat="44.57517" lon="1.76651">
        <ele>305.74</ele>
        <time>2025-02-23T13:06:54.035Z</time>
      </trkpt>
      <trkpt lat="44.57526" lon="1.7664">
        <ele>305.69</ele>
        <time>2025-02-23T13:07:04.044Z</time>
      </trkpt>
      <trkpt lat="44.57536" lon="1.76625">
        <ele>304.74</ele>
        <time>2025-02-23T13:07:14.443Z</time>
      </trkpt>
      <trkpt lat="44.57546" lon="1.76613">
        <ele>303.74</ele>
        <time>2025-02-23T13:07:25.084Z</time>
      </trkpt>
      <trkpt lat="44.57555" lon="1.766">
        <ele>302.74</ele>
        <time>2025-02-23T13:07:35.221Z</time>
      </trkpt>
      <trkpt lat="44.57565" lon="1.76588">
        <ele>303.98</ele>
        <time>2025-02-23T13:07:45.894Z</time>
      </trkpt>
      <trkpt lat="44.57575" lon="1.76575">
        <ele>301.99</ele>
        <time>2025-02-23T13:07:56.282Z</time>
      </trkpt>
      <trkpt lat="44.57578" lon="1.76562">
        <ele>302.49</ele>
        <time>2025-02-23T13:08:07.143Z</time>
      </trkpt>
      <trkpt lat="44.57579" lon="1.76547">
        <ele>302.74</ele>
        <time>2025-02-23T13:08:17.176Z</time>
      </trkpt>
      <trkpt lat="44.57578" lon="1.76538">
        <ele>302.68</ele>
        <time>2025-02-23T13:08:27.984Z</time>
      </trkpt>
      <trkpt lat="44.57572" lon="1.76525">
        <ele>300.75</ele>
        <time>2025-02-23T13:08:39.124Z</time>
      </trkpt>
      <trkpt lat="44.57567" lon="1.76514">
        <ele>301.74</ele>
        <time>2025-02-23T13:08:49.188Z</time>
      </trkpt>
      <trkpt lat="44.57563" lon="1.76503">
        <ele>302.74</ele>
        <time>2025-02-23T13:08:59.455Z</time>
      </trkpt>
      <trkpt lat="44.57556" lon="1.76493">
        <ele>302.75</ele>
        <time>2025-02-23T13:09:10.185Z</time>
      </trkpt>
      <trkpt lat="44.57551" lon="1.76483">
        <ele>302.79</ele>
        <time>2025-02-23T13:09:20.945Z</time>
      </trkpt>
      <trkpt lat="44.57546" lon="1.76474">
        <ele>302.74</ele>
        <time>2025-02-23T13:09:31.014Z</time>
      </trkpt>
      <trkpt lat="44.57541" lon="1.76463">
        <ele>304.49</ele>
        <time>2025-02-23T13:09:42.114Z</time>
      </trkpt>
      <trkpt lat="44.57538" lon="1.76457">
        <ele>305.74</ele>
        <time>2025-02-23T13:09:52.197Z</time>
      </trkpt>
      <trkpt lat="44.57534" lon="1.76445">
        <ele>307.74</ele>
        <time>2025-02-23T13:10:02.944Z</time>
      </trkpt>
      <trkpt lat="44.57529" lon="1.76436">
        <ele>308.72</ele>
        <time>2025-02-23T13:10:13.210Z</time>
      </trkpt>
      <trkpt lat="44.57525" lon="1.76426">
        <ele>309.74</ele>
        <time>2025-02-23T13:10:24.015Z</time>
      </trkpt>
      <trkpt lat="44.57521" lon="1.76419">
        <ele>311.74</ele>
        <time>2025-02-23T13:10:34.631Z</time>
      </trkpt>
      <trkpt lat="44.57515" lon="1.76411">
        <ele>312.5</ele>
        <time>2025-02-23T13:10:44.964Z</time>
      </trkpt>
      <trkpt lat="44.57512" lon="1.76401">
        <ele>313.74</ele>
        <time>2025-02-23T13:10:55.223Z</time>
      </trkpt>
      <trkpt lat="44.57507" lon="1.76392">
        <ele>314.74</ele>
        <time>2025-02-23T13:11:05.378Z</time>
      </trkpt>
      <trkpt lat="44.57502" lon="1.76383">
        <ele>315.49</ele>
        <time>2025-02-23T13:11:16.210Z</time>
      </trkpt>
      <trkpt lat="44.57497" lon="1.76374">
        <ele>316.74</ele>
        <time>2025-02-23T13:11:26.494Z</time>
      </trkpt>
      <trkpt lat="44.57492" lon="1.76364">
        <ele>318.74</ele>
        <time>2025-02-23T13:11:36.598Z</time>
      </trkpt>
      <trkpt lat="44.57487" lon="1.76352">
        <ele>320.72</ele>
        <time>2025-02-23T13:11:47.225Z</time>
      </trkpt>
      <trkpt lat="44.57482" lon="1.76339">
        <ele>320.49</ele>
        <time>2025-02-23T13:11:58.174Z</time>
      </trkpt>
      <trkpt lat="44.57475" lon="1.76328">
        <ele>319.8</ele>
        <time>2025-02-23T13:12:08.674Z</time>
      </trkpt>
      <trkpt lat="44.57469" lon="1.76314">
        <ele>320.74</ele>
        <time>2025-02-23T13:12:18.954Z</time>
      </trkpt>
      <trkpt lat="44.57463" lon="1.76302">
        <ele>321.74</ele>
        <time>2025-02-23T13:12:29.174Z</time>
      </trkpt>
      <trkpt lat="44.57457" lon="1.76289">
        <ele>321.74</ele>
        <time>2025-02-23T13:12:39.177Z</time>
      </trkpt>
      <trkpt lat="44.5745" lon="1.76276">
        <ele>321.74</ele>
        <time>2025-02-23T13:12:49.907Z</time>
      </trkpt>
      <trkpt lat="44.57446" lon="1.76263">
        <ele>321.74</ele>
        <time>2025-02-23T13:12:59.954Z</time>
      </trkpt>
      <trkpt lat="44.5744" lon="1.76252">
        <ele>320.8</ele>
        <time>2025-02-23T13:13:10.124Z</time>
      </trkpt>
      <trkpt lat="44.57433" lon="1.76239">
        <ele>320.68</ele>
        <time>2025-02-23T13:13:20.178Z</time>
      </trkpt>
      <trkpt lat="44.57426" lon="1.76227">
        <ele>319.8</ele>
        <time>2025-02-23T13:13:30.855Z</time>
      </trkpt>
      <trkpt lat="44.57421" lon="1.76215">
        <ele>318.74</ele>
        <time>2025-02-23T13:13:41.523Z</time>
      </trkpt>
      <trkpt lat="44.57415" lon="1.76202">
        <ele>316.75</ele>
        <time>2025-02-23T13:13:52.182Z</time>
      </trkpt>
      <trkpt lat="44.57409" lon="1.76189">
        <ele>315.74</ele>
        <time>2025-02-23T13:14:02.696Z</time>
      </trkpt>
      <trkpt lat="44.57403" lon="1.76179">
        <ele>314.74</ele>
        <time>2025-02-23T13:14:13.182Z</time>
      </trkpt>
      <trkpt lat="44.57398" lon="1.76176">
        <ele>314.74</ele>
        <time>2025-02-23T13:14:23.345Z</time>
      </trkpt>
      <trkpt lat="44.57389" lon="1.76168">
        <ele>313.74</ele>
        <time>2025-02-23T13:14:33.684Z</time>
      </trkpt>
      <trkpt lat="44.57377" lon="1.7616">
        <ele>312.74</ele>
        <time>2025-02-23T13:14:44.187Z</time>
      </trkpt>
      <trkpt lat="44.57364" lon="1.76152">
        <ele>310.99</ele>
        <time>2025-02-23T13:14:55.193Z</time>
      </trkpt>
      <trkpt lat="44.57352" lon="1.76146">
        <ele>309.76</ele>
        <time>2025-02-23T13:15:05.443Z</time>
      </trkpt>
      <trkpt lat="44.57342" lon="1.7614">
        <ele>309.74</ele>
        <time>2025-02-23T13:15:15.834Z</time>
      </trkpt>
      <trkpt lat="44.57335" lon="1.76136">
        <ele>310.74</ele>
        <time>2025-02-23T13:15:25.994Z</time>
      </trkpt>
      <trkpt lat="44.57327" lon="1.76129">
        <ele>310.74</ele>
        <time>2025-02-23T13:15:36.179Z</time>
      </trkpt>
      <trkpt lat="44.57314" lon="1.76123">
        <ele>309.76</ele>
        <time>2025-02-23T13:15:46.224Z</time>
      </trkpt>
      <trkpt lat="44.57301" lon="1.76117">
        <ele>309.74</ele>
        <time>2025-02-23T13:15:56.744Z</time>
      </trkpt>
      <trkpt lat="44.57292" lon="1.7611">
        <ele>310.74</ele>
        <time>2025-02-23T13:16:07.194Z</time>
      </trkpt>
      <trkpt lat="44.57283" lon="1.76105">
        <ele>312.74</ele>
        <time>2025-02-23T13:16:17.798Z</time>
      </trkpt>
      <trkpt lat="44.57274" lon="1.76098">
        <ele>310.76</ele>
        <time>2025-02-23T13:16:28.178Z</time>
      </trkpt>
      <trkpt lat="44.57263" lon="1.76092">
        <ele>310.76</ele>
        <time>2025-02-23T13:16:38.203Z</time>
      </trkpt>
      <trkpt lat="44.57253" lon="1.76085">
        <ele>309.75</ele>
        <time>2025-02-23T13:16:48.425Z</time>
      </trkpt>
      <trkpt lat="44.57244" lon="1.76081">
        <ele>309.68</ele>
        <time>2025-02-23T13:16:58.754Z</time>
      </trkpt>
      <trkpt lat="44.57233" lon="1.76073">
        <ele>309.74</ele>
        <time>2025-02-23T13:17:09.176Z</time>
      </trkpt>
      <trkpt lat="44.57222" lon="1.76066">
        <ele>309.51</ele>
        <time>2025-02-23T13:17:19.197Z</time>
      </trkpt>
      <trkpt lat="44.57212" lon="1.76061">
        <ele>309.74</ele>
        <time>2025-02-23T13:17:29.197Z</time>
      </trkpt>
      <trkpt lat="44.57202" lon="1.76053">
        <ele>309.74</ele>
        <time>2025-02-23T13:17:39.210Z</time>
      </trkpt>
      <trkpt lat="44.57192" lon="1.76046">
        <ele>308.74</ele>
        <time>2025-02-23T13:17:49.734Z</time>
      </trkpt>
      <trkpt lat="44.5718" lon="1.76041">
        <ele>309.74</ele>
        <time>2025-02-23T13:18:00.199Z</time>
      </trkpt>
      <trkpt lat="44.57171" lon="1.76035">
        <ele>310.74</ele>
        <time>2025-02-23T13:18:11.191Z</time>
      </trkpt>
      <trkpt lat="44.5716" lon="1.76028">
        <ele>310.75</ele>
        <time>2025-02-23T13:18:21.774Z</time>
      </trkpt>
      <trkpt lat="44.5715" lon="1.76021">
        <ele>309.75</ele>
        <time>2025-02-23T13:18:31.775Z</time>
      </trkpt>
      <trkpt lat="44.5714" lon="1.76019">
        <ele>309</ele>
        <time>2025-02-23T13:18:42.220Z</time>
      </trkpt>
      <trkpt lat="44.5714" lon="1.76016">
        <ele>308.75</ele>
        <time>2025-02-23T13:18:52.683Z</time>
      </trkpt>
      <trkpt lat="44.57135" lon="1.76014">
        <ele>307.8</ele>
        <time>2025-02-23T13:19:03.197Z</time>
      </trkpt>
      <trkpt lat="44.57126" lon="1.76005">
        <ele>309.74</ele>
        <time>2025-02-23T13:19:14.187Z</time>
      </trkpt>
      <trkpt lat="44.57116" lon="1.75995">
        <ele>311</ele>
        <time>2025-02-23T13:19:24.564Z</time>
      </trkpt>
      <trkpt lat="44.57105" lon="1.75991">
        <ele>310.76</ele>
        <time>2025-02-23T13:19:35.063Z</time>
      </trkpt>
      <trkpt lat="44.57093" lon="1.7599">
        <ele>308</ele>
        <time>2025-02-23T13:19:45.178Z</time>
      </trkpt>
      <trkpt lat="44.5708" lon="1.75986">
        <ele>306</ele>
        <time>2025-02-23T13:19:55.194Z</time>
      </trkpt>
      <trkpt lat="44.57067" lon="1.75982">
        <ele>304.75</ele>
        <time>2025-02-23T13:20:05.954Z</time>
      </trkpt>
      <trkpt lat="44.57055" lon="1.7598">
        <ele>304.75</ele>
        <time>2025-02-23T13:20:16.198Z</time>
      </trkpt>
      <trkpt lat="44.57043" lon="1.75977">
        <ele>304.76</ele>
        <time>2025-02-23T13:20:27.034Z</time>
      </trkpt>
      <trkpt lat="44.5703" lon="1.75974">
        <ele>302.02</ele>
        <time>2025-02-23T13:20:37.173Z</time>
      </trkpt>
      <trkpt lat="44.57019" lon="1.75971">
        <ele>303.68</ele>
        <time>2025-02-23T13:20:47.195Z</time>
      </trkpt>
      <trkpt lat="44.57009" lon="1.75969">
        <ele>303.5</ele>
        <time>2025-02-23T13:20:58.179Z</time>
      </trkpt>
      <trkpt lat="44.56999" lon="1.75968">
        <ele>304.74</ele>
        <time>2025-02-23T13:21:09.024Z</time>
      </trkpt>
      <trkpt lat="44.56989" lon="1.75967">
        <ele>304.76</ele>
        <time>2025-02-23T13:21:19.455Z</time>
      </trkpt>
      <trkpt lat="44.56975" lon="1.75964">
        <ele>305.75</ele>
        <time>2025-02-23T13:21:30.211Z</time>
      </trkpt>
      <trkpt lat="44.56962" lon="1.75962">
        <ele>304.68</ele>
        <time>2025-02-23T13:21:40.925Z</time>
      </trkpt>
      <trkpt lat="44.5695" lon="1.7596">
        <ele>305.5</ele>
        <time>2025-02-23T13:21:51.211Z</time>
      </trkpt>
      <trkpt lat="44.56937" lon="1.75957">
        <ele>308.49</ele>
        <time>2025-02-23T13:22:02.186Z</time>
      </trkpt>
      <trkpt lat="44.56927" lon="1.7596">
        <ele>309.79</ele>
        <time>2025-02-23T13:22:13.135Z</time>
      </trkpt>
      <trkpt lat="44.5692" lon="1.75975">
        <ele>310.51</ele>
        <time>2025-02-23T13:22:23.189Z</time>
      </trkpt>
      <trkpt lat="44.56913" lon="1.7599">
        <ele>310.75</ele>
        <time>2025-02-23T13:22:33.884Z</time>
      </trkpt>
      <trkpt lat="44.56904" lon="1.76005">
        <ele>308.75</ele>
        <time>2025-02-23T13:22:44.154Z</time>
      </trkpt>
      <trkpt lat="44.56898" lon="1.76021">
        <ele>307.74</ele>
        <time>2025-02-23T13:22:54.394Z</time>
      </trkpt>
      <trkpt lat="44.5689" lon="1.76034">
        <ele>305.99</ele>
        <time>2025-02-23T13:23:04.745Z</time>
      </trkpt>
      <trkpt lat="44.56889" lon="1.76035">
        <ele>304.99</ele>
        <time>2025-02-23T13:23:44.189Z</time>
      </trkpt>
      <trkpt lat="44.56887" lon="1.76036">
        <ele>304.74</ele>
        <time>2025-02-23T13:23:59.183Z</time>
      </trkpt>
      <trkpt lat="44.56883" lon="1.76049">
        <ele>305.49</ele>
        <time>2025-02-23T13:24:09.375Z</time>
      </trkpt>
      <trkpt lat="44.56879" lon="1.76063">
        <ele>305.74</ele>
        <time>2025-02-23T13:24:20.223Z</time>
      </trkpt>
      <trkpt lat="44.56877" lon="1.76078">
        <ele>304.49</ele>
        <time>2025-02-23T13:24:30.263Z</time>
      </trkpt>
      <trkpt lat="44.56877" lon="1.76083">
        <ele>303.74</ele>
        <time>2025-02-23T13:24:40.804Z</time>
      </trkpt>
      <trkpt lat="44.56873" lon="1.76099">
        <ele>302.74</ele>
        <time>2025-02-23T13:24:51.404Z</time>
      </trkpt>
      <trkpt lat="44.56868" lon="1.76114">
        <ele>301.74</ele>
        <time>2025-02-23T13:25:01.863Z</time>
      </trkpt>
      <trkpt lat="44.56864" lon="1.76129">
        <ele>300.74</ele>
        <time>2025-02-23T13:25:11.884Z</time>
      </trkpt>
      <trkpt lat="44.56859" lon="1.76142">
        <ele>298.74</ele>
        <time>2025-02-23T13:25:21.984Z</time>
      </trkpt>
      <trkpt lat="44.56849" lon="1.76148">
        <ele>297.74</ele>
        <time>2025-02-23T13:25:32.114Z</time>
      </trkpt>
      <trkpt lat="44.56842" lon="1.76159">
        <ele>296.74</ele>
        <time>2025-02-23T13:25:42.614Z</time>
      </trkpt>
      <trkpt lat="44.56835" lon="1.76172">
        <ele>295.74</ele>
        <time>2025-02-23T13:25:52.726Z</time>
      </trkpt>
      <trkpt lat="44.56828" lon="1.76184">
        <ele>294.74</ele>
        <time>2025-02-23T13:26:02.784Z</time>
      </trkpt>
      <trkpt lat="44.5682" lon="1.76195">
        <ele>292.74</ele>
        <time>2025-02-23T13:26:13.181Z</time>
      </trkpt>
      <trkpt lat="44.56812" lon="1.76207">
        <ele>290.74</ele>
        <time>2025-02-23T13:26:23.475Z</time>
      </trkpt>
      <trkpt lat="44.56803" lon="1.76217">
        <ele>289.74</ele>
        <time>2025-02-23T13:26:33.595Z</time>
      </trkpt>
      <trkpt lat="44.56794" lon="1.76228">
        <ele>288.74</ele>
        <time>2025-02-23T13:26:44.035Z</time>
      </trkpt>
      <trkpt lat="44.56791" lon="1.76231">
        <ele>286.74</ele>
        <time>2025-02-23T13:26:54.175Z</time>
      </trkpt>
      <trkpt lat="44.56792" lon="1.76231">
        <ele>282.76</ele>
        <time>2025-02-23T13:27:29.564Z</time>
      </trkpt>
      <trkpt lat="44.56792" lon="1.76238">
        <ele>281.74</ele>
        <time>2025-02-23T13:27:40.206Z</time>
      </trkpt>
      <trkpt lat="44.5679" lon="1.76238">
        <ele>281.74</ele>
        <time>2025-02-23T13:27:50.823Z</time>
      </trkpt>
      <trkpt lat="44.5679" lon="1.76237">
        <ele>280.74</ele>
        <time>2025-02-23T13:28:01.445Z</time>
      </trkpt>
      <trkpt lat="44.5679" lon="1.76232">
        <ele>279.99</ele>
        <time>2025-02-23T13:28:11.495Z</time>
      </trkpt>
      <trkpt lat="44.56787" lon="1.7623">
        <ele>279.74</ele>
        <time>2025-02-23T13:28:21.843Z</time>
      </trkpt>
      <trkpt lat="44.56787" lon="1.76229">
        <ele>280.74</ele>
        <time>2025-02-23T13:28:37.114Z</time>
      </trkpt>
      <trkpt lat="44.56787" lon="1.76231">
        <ele>281.73</ele>
        <time>2025-02-23T13:28:47.115Z</time>
      </trkpt>
      <trkpt lat="44.56786" lon="1.76235">
        <ele>282.74</ele>
        <time>2025-02-23T13:28:57.174Z</time>
      </trkpt>
      <trkpt lat="44.56785" lon="1.76237">
        <ele>284.74</ele>
        <time>2025-02-23T13:29:08.193Z</time>
      </trkpt>
      <trkpt lat="44.56784" lon="1.76238">
        <ele>283.76</ele>
        <time>2025-02-23T13:29:20.004Z</time>
      </trkpt>
      <trkpt lat="44.56782" lon="1.76238">
        <ele>283.74</ele>
        <time>2025-02-23T13:29:30.198Z</time>
      </trkpt>
      <trkpt lat="44.56783" lon="1.76237">
        <ele>282.8</ele>
        <time>2025-02-23T13:29:40.212Z</time>
      </trkpt>
      <trkpt lat="44.56781" lon="1.76232">
        <ele>282.74</ele>
        <time>2025-02-23T13:29:50.684Z</time>
      </trkpt>
      <trkpt lat="44.56771" lon="1.76231">
        <ele>284.74</ele>
        <time>2025-02-23T13:30:01.203Z</time>
      </trkpt>
      <trkpt lat="44.5676" lon="1.7623">
        <ele>286.68</ele>
        <time>2025-02-23T13:30:12.175Z</time>
      </trkpt>
      <trkpt lat="44.5675" lon="1.76231">
        <ele>286.76</ele>
        <time>2025-02-23T13:30:22.183Z</time>
      </trkpt>
      <trkpt lat="44.56744" lon="1.76221">
        <ele>287.74</ele>
        <time>2025-02-23T13:30:33.201Z</time>
      </trkpt>
      <trkpt lat="44.56739" lon="1.76217">
        <ele>286.74</ele>
        <time>2025-02-23T13:30:43.584Z</time>
      </trkpt>
      <trkpt lat="44.56738" lon="1.76214">
        <ele>285.74</ele>
        <time>2025-02-23T13:30:54.187Z</time>
      </trkpt>
      <trkpt lat="44.56737" lon="1.76209">
        <ele>288.67</ele>
        <time>2025-02-23T13:31:04.191Z</time>
      </trkpt>
      <trkpt lat="44.56737" lon="1.76211">
        <ele>291.73</ele>
        <time>2025-02-23T13:31:14.198Z</time>
      </trkpt>
      <trkpt lat="44.5674" lon="1.76217">
        <ele>291.75</ele>
        <time>2025-02-23T13:31:24.734Z</time>
      </trkpt>
      <trkpt lat="44.56735" lon="1.76207">
        <ele>290.74</ele>
        <time>2025-02-23T13:31:34.984Z</time>
      </trkpt>
      <trkpt lat="44.56739" lon="1.76203">
        <ele>288.51</ele>
        <time>2025-02-23T13:31:45.165Z</time>
      </trkpt>
      <trkpt lat="44.56744" lon="1.7621">
        <ele>289.98</ele>
        <time>2025-02-23T13:31:56.190Z</time>
      </trkpt>
      <trkpt lat="44.56745" lon="1.76208">
        <ele>289.51</ele>
        <time>2025-02-23T13:32:06.190Z</time>
      </trkpt>
      <trkpt lat="44.56752" lon="1.76211">
        <ele>290.55</ele>
        <time>2025-02-23T13:32:16.190Z</time>
      </trkpt>
      <trkpt lat="44.56761" lon="1.76217">
        <ele>291.49</ele>
        <time>2025-02-23T13:32:26.754Z</time>
      </trkpt>
      <trkpt lat="44.56768" lon="1.76226">
        <ele>291.74</ele>
        <time>2025-02-23T13:32:37.168Z</time>
      </trkpt>
      <trkpt lat="44.56776" lon="1.76232">
        <ele>294.74</ele>
        <time>2025-02-23T13:32:48.194Z</time>
      </trkpt>
      <trkpt lat="44.56781" lon="1.76234">
        <ele>292.76</ele>
        <time>2025-02-23T13:32:59.190Z</time>
      </trkpt>
      <trkpt lat="44.56782" lon="1.76234">
        <ele>290.74</ele>
        <time>2025-02-23T13:33:14.172Z</time>
      </trkpt>
      <trkpt lat="44.56786" lon="1.76232">
        <ele>287.76</ele>
        <time>2025-02-23T13:33:24.176Z</time>
      </trkpt>
      <trkpt lat="44.56791" lon="1.76228">
        <ele>286.01</ele>
        <time>2025-02-23T13:33:34.784Z</time>
      </trkpt>
      <trkpt lat="44.56792" lon="1.76225">
        <ele>286.74</ele>
        <time>2025-02-23T13:33:45.180Z</time>
      </trkpt>
      <trkpt lat="44.56788" lon="1.76217">
        <ele>284.74</ele>
        <time>2025-02-23T13:33:56.175Z</time>
      </trkpt>
      <trkpt lat="44.56785" lon="1.76208">
        <ele>284.74</ele>
        <time>2025-02-23T13:34:06.176Z</time>
      </trkpt>
      <trkpt lat="44.5678" lon="1.76204">
        <ele>286.74</ele>
        <time>2025-02-23T13:34:16.191Z</time>
      </trkpt>
      <trkpt lat="44.56773" lon="1.76203">
        <ele>287.68</ele>
        <time>2025-02-23T13:34:26.782Z</time>
      </trkpt>
      <trkpt lat="44.56765" lon="1.76193">
        <ele>288.68</ele>
        <time>2025-02-23T13:34:36.804Z</time>
      </trkpt>
      <trkpt lat="44.56763" lon="1.76188">
        <ele>291.74</ele>
        <time>2025-02-23T13:34:46.984Z</time>
      </trkpt>
      <trkpt lat="44.56759" lon="1.76178">
        <ele>291.49</ele>
        <time>2025-02-23T13:34:57.166Z</time>
      </trkpt>
      <trkpt lat="44.5675" lon="1.76171">
        <ele>290.74</ele>
        <time>2025-02-23T13:35:07.168Z</time>
      </trkpt>
      <trkpt lat="44.56741" lon="1.76165">
        <ele>289.74</ele>
        <time>2025-02-23T13:35:17.175Z</time>
      </trkpt>
      <trkpt lat="44.5673" lon="1.76156">
        <ele>290.49</ele>
        <time>2025-02-23T13:35:27.634Z</time>
      </trkpt>
      <trkpt lat="44.5672" lon="1.76147">
        <ele>291.74</ele>
        <time>2025-02-23T13:35:37.909Z</time>
      </trkpt>
      <trkpt lat="44.56712" lon="1.76142">
        <ele>292.74</ele>
        <time>2025-02-23T13:35:48.173Z</time>
      </trkpt>
      <trkpt lat="44.56708" lon="1.76137">
        <ele>293.73</ele>
        <time>2025-02-23T13:35:58.845Z</time>
      </trkpt>
      <trkpt lat="44.56703" lon="1.76132">
        <ele>291.24</ele>
        <time>2025-02-23T13:36:09.191Z</time>
      </trkpt>
      <trkpt lat="44.56697" lon="1.76129">
        <ele>286.74</ele>
        <time>2025-02-23T13:36:19.192Z</time>
      </trkpt>
      <trkpt lat="44.56697" lon="1.76129">
        <ele>286.74</ele>
        <time>2025-02-23T13:36:30.171Z</time>
      </trkpt>
      <trkpt lat="44.56695" lon="1.76128">
        <ele>286.74</ele>
        <time>2025-02-23T13:36:40.177Z</time>
      </trkpt>
      <trkpt lat="44.56689" lon="1.76127">
        <ele>289.74</ele>
        <time>2025-02-23T13:36:51.143Z</time>
      </trkpt>
      <trkpt lat="44.56679" lon="1.76111">
        <ele>290.79</ele>
        <time>2025-02-23T13:37:01.201Z</time>
      </trkpt>
      <trkpt lat="44.56668" lon="1.76103">
        <ele>291.74</ele>
        <time>2025-02-23T13:37:11.544Z</time>
      </trkpt>
      <trkpt lat="44.56655" lon="1.76098">
        <ele>291.74</ele>
        <time>2025-02-23T13:37:21.774Z</time>
      </trkpt>
      <trkpt lat="44.56644" lon="1.76095">
        <ele>291.73</ele>
        <time>2025-02-23T13:37:32.064Z</time>
      </trkpt>
      <trkpt lat="44.56634" lon="1.76089">
        <ele>291.93</ele>
        <time>2025-02-23T13:37:42.169Z</time>
      </trkpt>
      <trkpt lat="44.56623" lon="1.76084">
        <ele>294.73</ele>
        <time>2025-02-23T13:37:53.055Z</time>
      </trkpt>
      <trkpt lat="44.56614" lon="1.76073">
        <ele>294.99</ele>
        <time>2025-02-23T13:38:03.187Z</time>
      </trkpt>
      <trkpt lat="44.56603" lon="1.76064">
        <ele>295.73</ele>
        <time>2025-02-23T13:38:13.198Z</time>
      </trkpt>
      <trkpt lat="44.56594" lon="1.7606">
        <ele>295.74</ele>
        <time>2025-02-23T13:38:23.198Z</time>
      </trkpt>
      <trkpt lat="44.56583" lon="1.76053">
        <ele>296.99</ele>
        <time>2025-02-23T13:38:33.903Z</time>
      </trkpt>
      <trkpt lat="44.56572" lon="1.76049">
        <ele>297.74</ele>
        <time>2025-02-23T13:38:44.185Z</time>
      </trkpt>
      <trkpt lat="44.5656" lon="1.76046">
        <ele>297.74</ele>
        <time>2025-02-23T13:38:54.635Z</time>
      </trkpt>
      <trkpt lat="44.56547" lon="1.76046">
        <ele>296.74</ele>
        <time>2025-02-23T13:39:04.964Z</time>
      </trkpt>
      <trkpt lat="44.5654" lon="1.76042">
        <ele>296.74</ele>
        <time>2025-02-23T13:39:15.200Z</time>
      </trkpt>
      <trkpt lat="44.56538" lon="1.7603">
        <ele>299.68</ele>
        <time>2025-02-23T13:39:25.855Z</time>
      </trkpt>
      <trkpt lat="44.56537" lon="1.76017">
        <ele>301.73</ele>
        <time>2025-02-23T13:39:36.205Z</time>
      </trkpt>
      <trkpt lat="44.56537" lon="1.76002">
        <ele>300.74</ele>
        <time>2025-02-23T13:39:47.004Z</time>
      </trkpt>
      <trkpt lat="44.56537" lon="1.75989">
        <ele>301.74</ele>
        <time>2025-02-23T13:39:57.210Z</time>
      </trkpt>
      <trkpt lat="44.56536" lon="1.75975">
        <ele>302.75</ele>
        <time>2025-02-23T13:40:07.844Z</time>
      </trkpt>
      <trkpt lat="44.56534" lon="1.7596">
        <ele>303.68</ele>
        <time>2025-02-23T13:40:18.075Z</time>
      </trkpt>
      <trkpt lat="44.56533" lon="1.75945">
        <ele>303.75</ele>
        <time>2025-02-23T13:40:28.663Z</time>
      </trkpt>
      <trkpt lat="44.56531" lon="1.75929">
        <ele>306.73</ele>
        <time>2025-02-23T13:40:39.192Z</time>
      </trkpt>
      <trkpt lat="44.56529" lon="1.75912">
        <ele>309.5</ele>
        <time>2025-02-23T13:40:49.943Z</time>
      </trkpt>
      <trkpt lat="44.56524" lon="1.75897">
        <ele>307.76</ele>
        <time>2025-02-23T13:41:00.199Z</time>
      </trkpt>
      <trkpt lat="44.56521" lon="1.75884">
        <ele>308.5</ele>
        <time>2025-02-23T13:41:11.194Z</time>
      </trkpt>
      <trkpt lat="44.56513" lon="1.75871">
        <ele>309.75</ele>
        <time>2025-02-23T13:41:21.554Z</time>
      </trkpt>
      <trkpt lat="44.56501" lon="1.75865">
        <ele>307.75</ele>
        <time>2025-02-23T13:41:31.624Z</time>
      </trkpt>
      <trkpt lat="44.5649" lon="1.75862">
        <ele>306.75</ele>
        <time>2025-02-23T13:41:41.925Z</time>
      </trkpt>
      <trkpt lat="44.56478" lon="1.75863">
        <ele>305</ele>
        <time>2025-02-23T13:41:52.079Z</time>
      </trkpt>
      <trkpt lat="44.56463" lon="1.75864">
        <ele>303.76</ele>
        <time>2025-02-23T13:42:02.169Z</time>
      </trkpt>
      <trkpt lat="44.5645" lon="1.75871">
        <ele>302.75</ele>
        <time>2025-02-23T13:42:12.544Z</time>
      </trkpt>
      <trkpt lat="44.56438" lon="1.75877">
        <ele>300.75</ele>
        <time>2025-02-23T13:42:23.018Z</time>
      </trkpt>
      <trkpt lat="44.56426" lon="1.75884">
        <ele>299.75</ele>
        <time>2025-02-23T13:42:33.074Z</time>
      </trkpt>
      <trkpt lat="44.56415" lon="1.75891">
        <ele>298.76</ele>
        <time>2025-02-23T13:42:43.623Z</time>
      </trkpt>
      <trkpt lat="44.56405" lon="1.75896">
        <ele>300</ele>
        <time>2025-02-23T13:42:53.623Z</time>
      </trkpt>
      <trkpt lat="44.56394" lon="1.75899">
        <ele>299.75</ele>
        <time>2025-02-23T13:43:03.874Z</time>
      </trkpt>
      <trkpt lat="44.56383" lon="1.75905">
        <ele>300.75</ele>
        <time>2025-02-23T13:43:14.207Z</time>
      </trkpt>
      <trkpt lat="44.56373" lon="1.75912">
        <ele>299.69</ele>
        <time>2025-02-23T13:43:24.230Z</time>
      </trkpt>
      <trkpt lat="44.56361" lon="1.75915">
        <ele>300.74</ele>
        <time>2025-02-23T13:43:34.804Z</time>
      </trkpt>
      <trkpt lat="44.56361" lon="1.75902">
        <ele>301.75</ele>
        <time>2025-02-23T13:43:45.164Z</time>
      </trkpt>
      <trkpt lat="44.56359" lon="1.75889">
        <ele>300.81</ele>
        <time>2025-02-23T13:43:55.174Z</time>
      </trkpt>
      <trkpt lat="44.56348" lon="1.75886">
        <ele>297.75</ele>
        <time>2025-02-23T13:44:06.190Z</time>
      </trkpt>
      <trkpt lat="44.56339" lon="1.75881">
        <ele>299.5</ele>
        <time>2025-02-23T13:44:16.464Z</time>
      </trkpt>
      <trkpt lat="44.56331" lon="1.75871">
        <ele>300.74</ele>
        <time>2025-02-23T13:44:27.024Z</time>
      </trkpt>
      <trkpt lat="44.56325" lon="1.75862">
        <ele>297.81</ele>
        <time>2025-02-23T13:44:37.464Z</time>
      </trkpt>
      <trkpt lat="44.56315" lon="1.75859">
        <ele>294.75</ele>
        <time>2025-02-23T13:44:47.804Z</time>
      </trkpt>
      <trkpt lat="44.56305" lon="1.75862">
        <ele>291.76</ele>
        <time>2025-02-23T13:44:58.095Z</time>
      </trkpt>
      <trkpt lat="44.56293" lon="1.75869">
        <ele>292.5</ele>
        <time>2025-02-23T13:45:08.685Z</time>
      </trkpt>
      <trkpt lat="44.5629" lon="1.75867">
        <ele>290.75</ele>
        <time>2025-02-23T13:45:18.724Z</time>
      </trkpt>
      <trkpt lat="44.56285" lon="1.7586">
        <ele>291.75</ele>
        <time>2025-02-23T13:45:29.183Z</time>
      </trkpt>
      <trkpt lat="44.56282" lon="1.75852">
        <ele>289.76</ele>
        <time>2025-02-23T13:45:39.684Z</time>
      </trkpt>
      <trkpt lat="44.56278" lon="1.7584">
        <ele>288.75</ele>
        <time>2025-02-23T13:45:50.148Z</time>
      </trkpt>
      <trkpt lat="44.56274" lon="1.75831">
        <ele>288</ele>
        <time>2025-02-23T13:46:00.211Z</time>
      </trkpt>
      <trkpt lat="44.56269" lon="1.7583">
        <ele>284.75</ele>
        <time>2025-02-23T13:46:11.188Z</time>
      </trkpt>
      <trkpt lat="44.56269" lon="1.75829">
        <ele>285.73</ele>
        <time>2025-02-23T13:46:21.403Z</time>
      </trkpt>
      <trkpt lat="44.56262" lon="1.75821">
        <ele>284.75</ele>
        <time>2025-02-23T13:46:31.794Z</time>
      </trkpt>
      <trkpt lat="44.56258" lon="1.75811">
        <ele>284.75</ele>
        <time>2025-02-23T13:46:41.894Z</time>
      </trkpt>
      <trkpt lat="44.56252" lon="1.75802">
        <ele>282.81</ele>
        <time>2025-02-23T13:46:52.004Z</time>
      </trkpt>
      <trkpt lat="44.56247" lon="1.75792">
        <ele>281.75</ele>
        <time>2025-02-23T13:47:02.243Z</time>
      </trkpt>
      <trkpt lat="44.56239" lon="1.75781">
        <ele>279.75</ele>
        <time>2025-02-23T13:47:12.895Z</time>
      </trkpt>
      <trkpt lat="44.56234" lon="1.75773">
        <ele>277.75</ele>
        <time>2025-02-23T13:47:22.915Z</time>
      </trkpt>
      <trkpt lat="44.56223" lon="1.7577">
        <ele>275.75</ele>
        <time>2025-02-23T13:47:33.203Z</time>
      </trkpt>
      <trkpt lat="44.56215" lon="1.7577">
        <ele>274.75</ele>
        <time>2025-02-23T13:47:43.894Z</time>
      </trkpt>
      <trkpt lat="44.56203" lon="1.75773">
        <ele>272.81</ele>
        <time>2025-02-23T13:47:54.176Z</time>
      </trkpt>
      <trkpt lat="44.56197" lon="1.75776">
        <ele>269.75</ele>
        <time>2025-02-23T13:48:04.187Z</time>
      </trkpt>
      <trkpt lat="44.56192" lon="1.75776">
        <ele>266.75</ele>
        <time>2025-02-23T13:48:15.170Z</time>
      </trkpt>
      <trkpt lat="44.56188" lon="1.75779">
        <ele>266.5</ele>
        <time>2025-02-23T13:48:26.115Z</time>
      </trkpt>
      <trkpt lat="44.56187" lon="1.7578">
        <ele>267.75</ele>
        <time>2025-02-23T13:48:40.687Z</time>
      </trkpt>
      <trkpt lat="44.56188" lon="1.75781">
        <ele>270.5</ele>
        <time>2025-02-23T13:48:54.784Z</time>
      </trkpt>
      <trkpt lat="44.56194" lon="1.75784">
        <ele>272.74</ele>
        <time>2025-02-23T13:49:05.203Z</time>
      </trkpt>
      <trkpt lat="44.56197" lon="1.75784">
        <ele>273.75</ele>
        <time>2025-02-23T13:49:15.534Z</time>
      </trkpt>
      <trkpt lat="44.562" lon="1.75786">
        <ele>275.68</ele>
        <time>2025-02-23T13:49:25.584Z</time>
      </trkpt>
      <trkpt lat="44.56201" lon="1.75786">
        <ele>276.75</ele>
        <time>2025-02-23T13:49:36.174Z</time>
      </trkpt>
      <trkpt lat="44.56202" lon="1.75787">
        <ele>276.75</ele>
        <time>2025-02-23T13:49:46.184Z</time>
      </trkpt>
      <trkpt lat="44.56203" lon="1.75789">
        <ele>275.75</ele>
        <time>2025-02-23T13:49:56.200Z</time>
      </trkpt>
      <trkpt lat="44.56204" lon="1.75791">
        <ele>274.76</ele>
        <time>2025-02-23T13:50:06.201Z</time>
      </trkpt>
      <trkpt lat="44.56205" lon="1.75791">
        <ele>271.75</ele>
        <time>2025-02-23T13:50:16.220Z</time>
      </trkpt>
      <trkpt lat="44.56205" lon="1.7579">
        <ele>270</ele>
        <time>2025-02-23T13:50:40.191Z</time>
      </trkpt>
      <trkpt lat="44.56205" lon="1.75788">
        <ele>268.75</ele>
        <time>2025-02-23T13:50:50.193Z</time>
      </trkpt>
      <trkpt lat="44.56201" lon="1.75786">
        <ele>269.75</ele>
        <time>2025-02-23T13:51:01.187Z</time>
      </trkpt>
      <trkpt lat="44.562" lon="1.75785">
        <ele>269.75</ele>
        <time>2025-02-23T13:51:12.104Z</time>
      </trkpt>
      <trkpt lat="44.56195" lon="1.75782">
        <ele>268.76</ele>
        <time>2025-02-23T13:51:22.169Z</time>
      </trkpt>
      <trkpt lat="44.56194" lon="1.75782">
        <ele>268.75</ele>
        <time>2025-02-23T13:51:40.187Z</time>
      </trkpt>
      <trkpt lat="44.56192" lon="1.7578">
        <ele>269.5</ele>
        <time>2025-02-23T13:52:09.205Z</time>
      </trkpt>
      <trkpt lat="44.5619" lon="1.75779">
        <ele>269.75</ele>
        <time>2025-02-23T13:54:02.195Z</time>
      </trkpt>
      <trkpt lat="44.5619" lon="1.75777">
        <ele>270.75</ele>
        <time>2025-02-23T13:54:13.192Z</time>
      </trkpt>
      <trkpt lat="44.56189" lon="1.75777">
        <ele>269.75</ele>
        <time>2025-02-23T13:54:24.169Z</time>
      </trkpt>
      <trkpt lat="44.56188" lon="1.75776">
        <ele>268.56</ele>
        <time>2025-02-23T13:54:38.168Z</time>
      </trkpt>
      <trkpt lat="44.56178" lon="1.7578">
        <ele>267.75</ele>
        <time>2025-02-23T13:54:49.064Z</time>
      </trkpt>
      <trkpt lat="44.56174" lon="1.75784">
        <ele>267.75</ele>
        <time>2025-02-23T13:54:59.206Z</time>
      </trkpt>
      <trkpt lat="44.56174" lon="1.75785">
        <ele>266.01</ele>
        <time>2025-02-23T13:55:10.194Z</time>
      </trkpt>
      <trkpt lat="44.56166" lon="1.75795">
        <ele>265.73</ele>
        <time>2025-02-23T13:55:20.629Z</time>
      </trkpt>
      <trkpt lat="44.56157" lon="1.75803">
        <ele>266.7</ele>
        <time>2025-02-23T13:55:30.754Z</time>
      </trkpt>
      <trkpt lat="44.56149" lon="1.75814">
        <ele>267.74</ele>
        <time>2025-02-23T13:55:40.974Z</time>
      </trkpt>
      <trkpt lat="44.56142" lon="1.75825">
        <ele>267.75</ele>
        <time>2025-02-23T13:55:51.210Z</time>
      </trkpt>
      <trkpt lat="44.56133" lon="1.75836">
        <ele>268.75</ele>
        <time>2025-02-23T13:56:02.083Z</time>
      </trkpt>
      <trkpt lat="44.56128" lon="1.75846">
        <ele>269.75</ele>
        <time>2025-02-23T13:56:12.188Z</time>
      </trkpt>
      <trkpt lat="44.56129" lon="1.75849">
        <ele>269.68</ele>
        <time>2025-02-23T13:56:23.179Z</time>
      </trkpt>
      <trkpt lat="44.56124" lon="1.75856">
        <ele>268.75</ele>
        <time>2025-02-23T13:56:33.223Z</time>
      </trkpt>
      <trkpt lat="44.56115" lon="1.75864">
        <ele>268.75</ele>
        <time>2025-02-23T13:56:43.615Z</time>
      </trkpt>
      <trkpt lat="44.56106" lon="1.75872">
        <ele>270.75</ele>
        <time>2025-02-23T13:56:53.843Z</time>
      </trkpt>
      <trkpt lat="44.56099" lon="1.75884">
        <ele>270.75</ele>
        <time>2025-02-23T13:57:04.183Z</time>
      </trkpt>
      <trkpt lat="44.5609" lon="1.75895">
        <ele>270.98</ele>
        <time>2025-02-23T13:57:15.024Z</time>
      </trkpt>
      <trkpt lat="44.56082" lon="1.75905">
        <ele>270.75</ele>
        <time>2025-02-23T13:57:25.556Z</time>
      </trkpt>
      <trkpt lat="44.56073" lon="1.75916">
        <ele>273.68</ele>
        <time>2025-02-23T13:57:36.083Z</time>
      </trkpt>
      <trkpt lat="44.56066" lon="1.75927">
        <ele>274.51</ele>
        <time>2025-02-23T13:57:46.464Z</time>
      </trkpt>
      <trkpt lat="44.56054" lon="1.75935">
        <ele>274.74</ele>
        <time>2025-02-23T13:57:56.754Z</time>
      </trkpt>
      <trkpt lat="44.56046" lon="1.75943">
        <ele>275.75</ele>
        <time>2025-02-23T13:58:07.172Z</time>
      </trkpt>
      <trkpt lat="44.5604" lon="1.75956">
        <ele>275.73</ele>
        <time>2025-02-23T13:58:17.172Z</time>
      </trkpt>
      <trkpt lat="44.56031" lon="1.75969">
        <ele>275.75</ele>
        <time>2025-02-23T13:58:28.035Z</time>
      </trkpt>
      <trkpt lat="44.56024" lon="1.75979">
        <ele>279.49</ele>
        <time>2025-02-23T13:58:38.171Z</time>
      </trkpt>
      <trkpt lat="44.56019" lon="1.75991">
        <ele>279.81</ele>
        <time>2025-02-23T13:58:48.181Z</time>
      </trkpt>
      <trkpt lat="44.56022" lon="1.75993">
        <ele>280.74</ele>
        <time>2025-02-23T13:58:59.186Z</time>
      </trkpt>
      <trkpt lat="44.56021" lon="1.75994">
        <ele>279.81</ele>
        <time>2025-02-23T13:59:26.187Z</time>
      </trkpt>
      <trkpt lat="44.5602" lon="1.75995">
        <ele>279.74</ele>
        <time>2025-02-23T13:59:43.174Z</time>
      </trkpt>
      <trkpt lat="44.5602" lon="1.76009">
        <ele>278.74</ele>
        <time>2025-02-23T13:59:53.191Z</time>
      </trkpt>
      <trkpt lat="44.56019" lon="1.76023">
        <ele>282.68</ele>
        <time>2025-02-23T14:00:03.574Z</time>
      </trkpt>
      <trkpt lat="44.56021" lon="1.76041">
        <ele>283.74</ele>
        <time>2025-02-23T14:00:13.904Z</time>
      </trkpt>
      <trkpt lat="44.56024" lon="1.76057">
        <ele>285.74</ele>
        <time>2025-02-23T14:00:24.221Z</time>
      </trkpt>
      <trkpt lat="44.5603" lon="1.76075">
        <ele>286.74</ele>
        <time>2025-02-23T14:00:34.735Z</time>
      </trkpt>
      <trkpt lat="44.56035" lon="1.76091">
        <ele>286.74</ele>
        <time>2025-02-23T14:00:45.201Z</time>
      </trkpt>
      <trkpt lat="44.56041" lon="1.76104">
        <ele>286.74</ele>
        <time>2025-02-23T14:00:55.704Z</time>
      </trkpt>
      <trkpt lat="44.56046" lon="1.76117">
        <ele>284.74</ele>
        <time>2025-02-23T14:01:06.064Z</time>
      </trkpt>
      <trkpt lat="44.5605" lon="1.7613">
        <ele>282.76</ele>
        <time>2025-02-23T14:01:16.503Z</time>
      </trkpt>
      <trkpt lat="44.56055" lon="1.76145">
        <ele>280.74</ele>
        <time>2025-02-23T14:01:26.865Z</time>
      </trkpt>
      <trkpt lat="44.56057" lon="1.76159">
        <ele>279.74</ele>
        <time>2025-02-23T14:01:37.463Z</time>
      </trkpt>
      <trkpt lat="44.56057" lon="1.76175">
        <ele>277.8</ele>
        <time>2025-02-23T14:01:47.805Z</time>
      </trkpt>
      <trkpt lat="44.56054" lon="1.7619">
        <ele>272.76</ele>
        <time>2025-02-23T14:01:58.503Z</time>
      </trkpt>
      <trkpt lat="44.56048" lon="1.76203">
        <ele>270.74</ele>
        <time>2025-02-23T14:02:08.535Z</time>
      </trkpt>
      <trkpt lat="44.56042" lon="1.76215">
        <ele>268.8</ele>
        <time>2025-02-23T14:02:18.804Z</time>
      </trkpt>
      <trkpt lat="44.56037" lon="1.76229">
        <ele>265.81</ele>
        <time>2025-02-23T14:02:29.189Z</time>
      </trkpt>
      <trkpt lat="44.56035" lon="1.76231">
        <ele>264.74</ele>
        <time>2025-02-23T14:02:40.189Z</time>
      </trkpt>
      <trkpt lat="44.56035" lon="1.76235">
        <ele>263.74</ele>
        <time>2025-02-23T14:02:50.197Z</time>
      </trkpt>
      <trkpt lat="44.56034" lon="1.76234">
        <ele>263.79</ele>
        <time>2025-02-23T14:03:00.905Z</time>
      </trkpt>
      <trkpt lat="44.56034" lon="1.76237">
        <ele>261.74</ele>
        <time>2025-02-23T14:03:11.209Z</time>
      </trkpt>
      <trkpt lat="44.56032" lon="1.76237">
        <ele>261.74</ele>
        <time>2025-02-23T14:03:23.176Z</time>
      </trkpt>
      <trkpt lat="44.56023" lon="1.7625">
        <ele>261.8</ele>
        <time>2025-02-23T14:03:33.384Z</time>
      </trkpt>
      <trkpt lat="44.56017" lon="1.76264">
        <ele>259.69</ele>
        <time>2025-02-23T14:03:43.984Z</time>
      </trkpt>
      <trkpt lat="44.56007" lon="1.76277">
        <ele>257.76</ele>
        <time>2025-02-23T14:03:54.463Z</time>
      </trkpt>
      <trkpt lat="44.56006" lon="1.76281">
        <ele>256.74</ele>
        <time>2025-02-23T14:04:05.192Z</time>
      </trkpt>
      <trkpt lat="44.56004" lon="1.76281">
        <ele>254.86</ele>
        <time>2025-02-23T14:04:16.190Z</time>
      </trkpt>
      <trkpt lat="44.56002" lon="1.76283">
        <ele>251.74</ele>
        <time>2025-02-23T14:04:27.184Z</time>
      </trkpt>
      <trkpt lat="44.56002" lon="1.76284">
        <ele>249.86</ele>
        <time>2025-02-23T14:04:42.171Z</time>
      </trkpt>
      <trkpt lat="44.56003" lon="1.76286">
        <ele>248.74</ele>
        <time>2025-02-23T14:04:54.193Z</time>
      </trkpt>
      <trkpt lat="44.56002" lon="1.76287">
        <ele>249.74</ele>
        <time>2025-02-23T14:05:15.744Z</time>
      </trkpt>
      <trkpt lat="44.55994" lon="1.763">
        <ele>249.74</ele>
        <time>2025-02-23T14:05:26.211Z</time>
      </trkpt>
      <trkpt lat="44.55991" lon="1.76316">
        <ele>249.74</ele>
        <time>2025-02-23T14:05:36.824Z</time>
      </trkpt>
      <trkpt lat="44.55987" lon="1.7633">
        <ele>250.74</ele>
        <time>2025-02-23T14:05:47.124Z</time>
      </trkpt>
      <trkpt lat="44.55982" lon="1.76347">
        <ele>250.74</ele>
        <time>2025-02-23T14:05:58.003Z</time>
      </trkpt>
      <trkpt lat="44.55978" lon="1.76364">
        <ele>251.74</ele>
        <time>2025-02-23T14:06:08.243Z</time>
      </trkpt>
      <trkpt lat="44.55973" lon="1.76382">
        <ele>252.74</ele>
        <time>2025-02-23T14:06:18.783Z</time>
      </trkpt>
      <trkpt lat="44.55966" lon="1.76398">
        <ele>254.49</ele>
        <time>2025-02-23T14:06:29.167Z</time>
      </trkpt>
      <trkpt lat="44.55962" lon="1.76412">
        <ele>254.99</ele>
        <time>2025-02-23T14:06:39.483Z</time>
      </trkpt>
      <trkpt lat="44.55961" lon="1.76419">
        <ele>253.74</ele>
        <time>2025-02-23T14:06:50.181Z</time>
      </trkpt>
      <trkpt lat="44.5596" lon="1.76421">
        <ele>253.74</ele>
        <time>2025-02-23T14:07:00.190Z</time>
      </trkpt>
      <trkpt lat="44.55959" lon="1.7642">
        <ele>253.74</ele>
        <time>2025-02-23T14:07:10.204Z</time>
      </trkpt>
      <trkpt lat="44.55957" lon="1.76418">
        <ele>254.75</ele>
        <time>2025-02-23T14:07:20.823Z</time>
      </trkpt>
      <trkpt lat="44.55963" lon="1.76404">
        <ele>254.73</ele>
        <time>2025-02-23T14:07:31.424Z</time>
      </trkpt>
      <trkpt lat="44.55966" lon="1.76391">
        <ele>255.68</ele>
        <time>2025-02-23T14:07:41.805Z</time>
      </trkpt>
      <trkpt lat="44.55968" lon="1.76376">
        <ele>256.74</ele>
        <time>2025-02-23T14:07:51.824Z</time>
      </trkpt>
      <trkpt lat="44.5597" lon="1.76362">
        <ele>256.74</ele>
        <time>2025-02-23T14:08:02.105Z</time>
      </trkpt>
      <trkpt lat="44.55971" lon="1.76356">
        <ele>255.99</ele>
        <time>2025-02-23T14:08:12.173Z</time>
      </trkpt>
      <trkpt lat="44.55969" lon="1.76348">
        <ele>257.73</ele>
        <time>2025-02-23T14:08:22.923Z</time>
      </trkpt>
      <trkpt lat="44.55966" lon="1.76347">
        <ele>256.74</ele>
        <time>2025-02-23T14:08:33.188Z</time>
      </trkpt>
      <trkpt lat="44.55964" lon="1.76343">
        <ele>255.74</ele>
        <time>2025-02-23T14:08:43.189Z</time>
      </trkpt>
      <trkpt lat="44.55965" lon="1.76342">
        <ele>253.99</ele>
        <time>2025-02-23T14:09:20.181Z</time>
      </trkpt>
      <trkpt lat="44.55965" lon="1.76341">
        <ele>252.74</ele>
        <time>2025-02-23T14:09:47.064Z</time>
      </trkpt>
      <trkpt lat="44.55964" lon="1.76334">
        <ele>252.73</ele>
        <time>2025-02-23T14:09:57.168Z</time>
      </trkpt>
      <trkpt lat="44.55948" lon="1.76336">
        <ele>252.74</ele>
        <time>2025-02-23T14:10:07.176Z</time>
      </trkpt>
      <trkpt lat="44.5594" lon="1.76334">
        <ele>252.74</ele>
        <time>2025-02-23T14:10:18.884Z</time>
      </trkpt>
      <trkpt lat="44.55904" lon="1.76406">
        <ele>315.85</ele>
        <time>2025-02-23T14:12:58.665Z</time>
      </trkpt>
      <trkpt lat="44.55915" lon="1.76418">
        <ele>327.72</ele>
        <time>2025-02-23T14:13:09.343Z</time>
      </trkpt>
      <trkpt lat="44.55969" lon="1.76343">
        <ele>259.49</ele>
        <time>2025-02-23T14:13:54.201Z</time>
      </trkpt>
      <trkpt lat="44.55968" lon="1.76342">
        <ele>255.01</ele>
        <time>2025-02-23T14:14:05.183Z</time>
      </trkpt>
      <trkpt lat="44.55966" lon="1.76342">
        <ele>249.74</ele>
        <time>2025-02-23T14:14:15.189Z</time>
      </trkpt>
      <trkpt lat="44.55967" lon="1.76346">
        <ele>253.74</ele>
        <time>2025-02-23T14:14:25.864Z</time>
      </trkpt>
      <trkpt lat="44.55968" lon="1.76345">
        <ele>254.74</ele>
        <time>2025-02-23T14:14:36.166Z</time>
      </trkpt>
      <trkpt lat="44.55969" lon="1.76345">
        <ele>254.74</ele>
        <time>2025-02-23T14:14:53.044Z</time>
      </trkpt>
      <trkpt lat="44.5597" lon="1.76346">
        <ele>254.74</ele>
        <time>2025-02-23T14:15:03.084Z</time>
      </trkpt>
      <trkpt lat="44.55965" lon="1.76359">
        <ele>257.74</ele>
        <time>2025-02-23T14:15:13.304Z</time>
      </trkpt>
      <trkpt lat="44.55962" lon="1.76372">
        <ele>261.68</ele>
        <time>2025-02-23T14:15:23.343Z</time>
      </trkpt>
      <trkpt lat="44.5596" lon="1.76386">
        <ele>262.74</ele>
        <time>2025-02-23T14:15:33.963Z</time>
      </trkpt>
      <trkpt lat="44.55958" lon="1.76399">
        <ele>261.74</ele>
        <time>2025-02-23T14:15:43.983Z</time>
      </trkpt>
      <trkpt lat="44.55956" lon="1.76416">
        <ele>260.74</ele>
        <time>2025-02-23T14:15:54.344Z</time>
      </trkpt>
      <trkpt lat="44.55954" lon="1.76434">
        <ele>260.74</ele>
        <time>2025-02-23T14:16:04.965Z</time>
      </trkpt>
      <trkpt lat="44.55952" lon="1.7645">
        <ele>258.74</ele>
        <time>2025-02-23T14:16:16.186Z</time>
      </trkpt>
      <trkpt lat="44.5595" lon="1.76465">
        <ele>259.73</ele>
        <time>2025-02-23T14:16:26.210Z</time>
      </trkpt>
      <trkpt lat="44.55951" lon="1.76482">
        <ele>258.74</ele>
        <time>2025-02-23T14:16:36.464Z</time>
      </trkpt>
      <trkpt lat="44.55952" lon="1.76499">
        <ele>257.74</ele>
        <time>2025-02-23T14:16:47.191Z</time>
      </trkpt>
      <trkpt lat="44.55954" lon="1.76519">
        <ele>258.74</ele>
        <time>2025-02-23T14:16:58.124Z</time>
      </trkpt>
      <trkpt lat="44.55954" lon="1.76537">
        <ele>258.74</ele>
        <time>2025-02-23T14:17:09.063Z</time>
      </trkpt>
      <trkpt lat="44.55956" lon="1.76556">
        <ele>256.72</ele>
        <time>2025-02-23T14:17:20.003Z</time>
      </trkpt>
      <trkpt lat="44.55957" lon="1.76572">
        <ele>255.98</ele>
        <time>2025-02-23T14:17:31.083Z</time>
      </trkpt>
      <trkpt lat="44.55955" lon="1.7659">
        <ele>253.75</ele>
        <time>2025-02-23T14:17:42.064Z</time>
      </trkpt>
      <trkpt lat="44.55952" lon="1.76606">
        <ele>252.73</ele>
        <time>2025-02-23T14:17:52.183Z</time>
      </trkpt>
      <trkpt lat="44.55953" lon="1.76609">
        <ele>250.74</ele>
        <time>2025-02-23T14:18:02.230Z</time>
      </trkpt>
      <trkpt lat="44.55952" lon="1.76614">
        <ele>249.73</ele>
        <time>2025-02-23T14:18:13.181Z</time>
      </trkpt>
      <trkpt lat="44.55943" lon="1.76627">
        <ele>249.79</ele>
        <time>2025-02-23T14:18:24.184Z</time>
      </trkpt>
      <trkpt lat="44.5593" lon="1.76631">
        <ele>247.75</ele>
        <time>2025-02-23T14:18:35.083Z</time>
      </trkpt>
      <trkpt lat="44.55918" lon="1.76635">
        <ele>245.74</ele>
        <time>2025-02-23T14:18:45.945Z</time>
      </trkpt>
      <trkpt lat="44.55909" lon="1.76642">
        <ele>247.61</ele>
        <time>2025-02-23T14:18:56.223Z</time>
      </trkpt>
      <trkpt lat="44.55899" lon="1.76644">
        <ele>247.74</ele>
        <time>2025-02-23T14:19:07.193Z</time>
      </trkpt>
      <trkpt lat="44.55891" lon="1.76649">
        <ele>248.73</ele>
        <time>2025-02-23T14:19:17.744Z</time>
      </trkpt>
      <trkpt lat="44.55883" lon="1.76656">
        <ele>247.73</ele>
        <time>2025-02-23T14:19:28.083Z</time>
      </trkpt>
      <trkpt lat="44.55873" lon="1.76663">
        <ele>247.75</ele>
        <time>2025-02-23T14:19:38.584Z</time>
      </trkpt>
      <trkpt lat="44.55862" lon="1.7667">
        <ele>247.73</ele>
        <time>2025-02-23T14:19:49.003Z</time>
      </trkpt>
      <trkpt lat="44.55852" lon="1.76677">
        <ele>249.48</ele>
        <time>2025-02-23T14:19:59.564Z</time>
      </trkpt>
      <trkpt lat="44.55842" lon="1.76686">
        <ele>248.73</ele>
        <time>2025-02-23T14:20:09.764Z</time>
      </trkpt>
      <trkpt lat="44.55833" lon="1.76693">
        <ele>247.75</ele>
        <time>2025-02-23T14:20:20.191Z</time>
      </trkpt>
      <trkpt lat="44.5583" lon="1.76696">
        <ele>245.73</ele>
        <time>2025-02-23T14:20:30.749Z</time>
      </trkpt>
      <trkpt lat="44.55829" lon="1.76698">
        <ele>246.73</ele>
        <time>2025-02-23T14:20:41.168Z</time>
      </trkpt>
      <trkpt lat="44.55828" lon="1.76698">
        <ele>245.8</ele>
        <time>2025-02-23T14:20:51.168Z</time>
      </trkpt>
      <trkpt lat="44.55823" lon="1.76695">
        <ele>245.72</ele>
        <time>2025-02-23T14:21:01.424Z</time>
      </trkpt>
      <trkpt lat="44.55821" lon="1.76695">
        <ele>246.73</ele>
        <time>2025-02-23T14:21:12.170Z</time>
      </trkpt>
      <trkpt lat="44.55813" lon="1.76698">
        <ele>247.73</ele>
        <time>2025-02-23T14:21:23.168Z</time>
      </trkpt>
      <trkpt lat="44.55802" lon="1.76696">
        <ele>247.73</ele>
        <time>2025-02-23T14:21:33.169Z</time>
      </trkpt>
      <trkpt lat="44.55789" lon="1.76693">
        <ele>248.73</ele>
        <time>2025-02-23T14:21:43.169Z</time>
      </trkpt>
      <trkpt lat="44.55778" lon="1.76692">
        <ele>248.73</ele>
        <time>2025-02-23T14:21:53.172Z</time>
      </trkpt>
      <trkpt lat="44.55767" lon="1.76691">
        <ele>247.73</ele>
        <time>2025-02-23T14:22:03.405Z</time>
      </trkpt>
      <trkpt lat="44.55754" lon="1.76687">
        <ele>246.73</ele>
        <time>2025-02-23T14:22:13.824Z</time>
      </trkpt>
      <trkpt lat="44.55743" lon="1.76685">
        <ele>245.73</ele>
        <time>2025-02-23T14:22:24.201Z</time>
      </trkpt>
      <trkpt lat="44.55737" lon="1.76683">
        <ele>244.75</ele>
        <time>2025-02-23T14:22:34.784Z</time>
      </trkpt>
      <trkpt lat="44.55726" lon="1.76677">
        <ele>244.73</ele>
        <time>2025-02-23T14:22:44.844Z</time>
      </trkpt>
      <trkpt lat="44.55715" lon="1.76676">
        <ele>244.73</ele>
        <time>2025-02-23T14:22:55.964Z</time>
      </trkpt>
      <trkpt lat="44.55703" lon="1.76677">
        <ele>244.48</ele>
        <time>2025-02-23T14:23:06.182Z</time>
      </trkpt>
      <trkpt lat="44.55701" lon="1.76673">
        <ele>241.8</ele>
        <time>2025-02-23T14:23:16.843Z</time>
      </trkpt>
      <trkpt lat="44.557" lon="1.76672">
        <ele>241.67</ele>
        <time>2025-02-23T14:23:32.173Z</time>
      </trkpt>
      <trkpt lat="44.55692" lon="1.76676">
        <ele>241.73</ele>
        <time>2025-02-23T14:23:42.584Z</time>
      </trkpt>
      <trkpt lat="44.5569" lon="1.76677">
        <ele>242.73</ele>
        <time>2025-02-23T14:23:53.190Z</time>
      </trkpt>
      <trkpt lat="44.55691" lon="1.76675">
        <ele>240.92</ele>
        <time>2025-02-23T14:24:22.189Z</time>
      </trkpt>
      <trkpt lat="44.55692" lon="1.76672">
        <ele>240.73</ele>
        <time>2025-02-23T14:24:32.191Z</time>
      </trkpt>
      <trkpt lat="44.5569" lon="1.76677">
        <ele>241.73</ele>
        <time>2025-02-23T14:24:42.202Z</time>
      </trkpt>
      <trkpt lat="44.55694" lon="1.7667">
        <ele>241.67</ele>
        <time>2025-02-23T14:24:52.464Z</time>
      </trkpt>
      <trkpt lat="44.55696" lon="1.76674">
        <ele>241.73</ele>
        <time>2025-02-23T14:25:02.464Z</time>
      </trkpt>
      <trkpt lat="44.55694" lon="1.76682">
        <ele>241.72</ele>
        <time>2025-02-23T14:25:12.715Z</time>
      </trkpt>
      <trkpt lat="44.55691" lon="1.76693">
        <ele>240.73</ele>
        <time>2025-02-23T14:25:23.003Z</time>
      </trkpt>
      <trkpt lat="44.5569" lon="1.76702">
        <ele>238.73</ele>
        <time>2025-02-23T14:25:33.123Z</time>
      </trkpt>
      <trkpt lat="44.55689" lon="1.76707">
        <ele>238.73</ele>
        <time>2025-02-23T14:25:43.888Z</time>
      </trkpt>
      <trkpt lat="44.55687" lon="1.76716">
        <ele>236.73</ele>
        <time>2025-02-23T14:25:54.485Z</time>
      </trkpt>
      <trkpt lat="44.55691" lon="1.76728">
        <ele>236.73</ele>
        <time>2025-02-23T14:26:04.824Z</time>
      </trkpt>
      <trkpt lat="44.557" lon="1.76737">
        <ele>236.54</ele>
        <time>2025-02-23T14:26:15.025Z</time>
      </trkpt>
      <trkpt lat="44.55709" lon="1.76744">
        <ele>235.73</ele>
        <time>2025-02-23T14:26:25.164Z</time>
      </trkpt>
      <trkpt lat="44.55713" lon="1.76749">
        <ele>234.75</ele>
        <time>2025-02-23T14:26:35.199Z</time>
      </trkpt>
      <trkpt lat="44.55721" lon="1.7676">
        <ele>233.79</ele>
        <time>2025-02-23T14:26:46.004Z</time>
      </trkpt>
      <trkpt lat="44.55731" lon="1.76769">
        <ele>232.73</ele>
        <time>2025-02-23T14:26:56.024Z</time>
      </trkpt>
      <trkpt lat="44.55739" lon="1.76778">
        <ele>233.48</ele>
        <time>2025-02-23T14:27:06.183Z</time>
      </trkpt>
      <trkpt lat="44.55743" lon="1.76789">
        <ele>231.98</ele>
        <time>2025-02-23T14:27:16.724Z</time>
      </trkpt>
      <trkpt lat="44.5574" lon="1.76793">
        <ele>226.98</ele>
        <time>2025-02-23T14:27:27.211Z</time>
      </trkpt>
      <trkpt lat="44.55732" lon="1.7679">
        <ele>226.48</ele>
        <time>2025-02-23T14:27:37.283Z</time>
      </trkpt>
      <trkpt lat="44.55727" lon="1.76792">
        <ele>221.75</ele>
        <time>2025-02-23T14:27:48.190Z</time>
      </trkpt>
      <trkpt lat="44.55726" lon="1.76793">
        <ele>220.73</ele>
        <time>2025-02-23T14:27:59.183Z</time>
      </trkpt>
      <trkpt lat="44.55727" lon="1.76792">
        <ele>218.86</ele>
        <time>2025-02-23T14:29:04.193Z</time>
      </trkpt>
      <trkpt lat="44.55726" lon="1.76791">
        <ele>216.73</ele>
        <time>2025-02-23T14:29:15.183Z</time>
      </trkpt>
      <trkpt lat="44.55718" lon="1.76788">
        <ele>215.73</ele>
        <time>2025-02-23T14:29:25.764Z</time>
      </trkpt>
      <trkpt lat="44.55708" lon="1.76786">
        <ele>217.48</ele>
        <time>2025-02-23T14:29:36.165Z</time>
      </trkpt>
      <trkpt lat="44.55698" lon="1.76786">
        <ele>216.73</ele>
        <time>2025-02-23T14:29:46.182Z</time>
      </trkpt>
      <trkpt lat="44.55688" lon="1.76784">
        <ele>215.73</ele>
        <time>2025-02-23T14:29:56.523Z</time>
      </trkpt>
      <trkpt lat="44.55675" lon="1.76779">
        <ele>216.67</ele>
        <time>2025-02-23T14:30:06.883Z</time>
      </trkpt>
      <trkpt lat="44.55665" lon="1.76773">
        <ele>212.79</ele>
        <time>2025-02-23T14:30:17.180Z</time>
      </trkpt>
      <trkpt lat="44.55656" lon="1.76765">
        <ele>211.73</ele>
        <time>2025-02-23T14:30:27.484Z</time>
      </trkpt>
      <trkpt lat="44.55644" lon="1.76758">
        <ele>209.75</ele>
        <time>2025-02-23T14:30:37.743Z</time>
      </trkpt>
      <trkpt lat="44.55632" lon="1.76752">
        <ele>209.73</ele>
        <time>2025-02-23T14:30:48.189Z</time>
      </trkpt>
      <trkpt lat="44.55623" lon="1.76748">
        <ele>210.67</ele>
        <time>2025-02-23T14:30:58.224Z</time>
      </trkpt>
      <trkpt lat="44.55611" lon="1.76748">
        <ele>209.75</ele>
        <time>2025-02-23T14:31:08.664Z</time>
      </trkpt>
      <trkpt lat="44.55609" lon="1.76749">
        <ele>205.79</ele>
        <time>2025-02-23T14:31:19.184Z</time>
      </trkpt>
      <trkpt lat="44.5561" lon="1.76759">
        <ele>202.73</ele>
        <time>2025-02-23T14:31:29.184Z</time>
      </trkpt>
      <trkpt lat="44.55614" lon="1.76762">
        <ele>204.98</ele>
        <time>2025-02-23T14:31:39.190Z</time>
      </trkpt>
      <trkpt lat="44.55615" lon="1.76764">
        <ele>204.73</ele>
        <time>2025-02-23T14:31:49.645Z</time>
      </trkpt>
      <trkpt lat="44.55617" lon="1.76763">
        <ele>203.73</ele>
        <time>2025-02-23T14:32:00.167Z</time>
      </trkpt>
      <trkpt lat="44.55618" lon="1.76764">
        <ele>200.98</ele>
        <time>2025-02-23T14:33:10.184Z</time>
      </trkpt>
      <trkpt lat="44.55624" lon="1.76772">
        <ele>203.49</ele>
        <time>2025-02-23T14:33:21.188Z</time>
      </trkpt>
      <trkpt lat="44.55627" lon="1.76778">
        <ele>204.67</ele>
        <time>2025-02-23T14:33:31.192Z</time>
      </trkpt>
      <trkpt lat="44.55627" lon="1.7678">
        <ele>204.73</ele>
        <time>2025-02-23T14:33:42.197Z</time>
      </trkpt>
      <trkpt lat="44.55629" lon="1.76787">
        <ele>205.73</ele>
        <time>2025-02-23T14:33:52.744Z</time>
      </trkpt>
      <trkpt lat="44.55628" lon="1.76795">
        <ele>205.73</ele>
        <time>2025-02-23T14:34:02.834Z</time>
      </trkpt>
      <trkpt lat="44.5563" lon="1.76804">
        <ele>204.73</ele>
        <time>2025-02-23T14:34:13.191Z</time>
      </trkpt>
      <trkpt lat="44.55636" lon="1.76817">
        <ele>203.73</ele>
        <time>2025-02-23T14:34:23.774Z</time>
      </trkpt>
      <trkpt lat="44.55643" lon="1.76831">
        <ele>202.73</ele>
        <time>2025-02-23T14:34:34.075Z</time>
      </trkpt>
      <trkpt lat="44.55651" lon="1.76842">
        <ele>201.98</ele>
        <time>2025-02-23T14:34:44.494Z</time>
      </trkpt>
      <trkpt lat="44.5566" lon="1.76853">
        <ele>201.73</ele>
        <time>2025-02-23T14:34:54.714Z</time>
      </trkpt>
      <trkpt lat="44.55668" lon="1.76867">
        <ele>200.73</ele>
        <time>2025-02-23T14:35:05.035Z</time>
      </trkpt>
      <trkpt lat="44.55671" lon="1.7688">
        <ele>197.98</ele>
        <time>2025-02-23T14:35:15.314Z</time>
      </trkpt>
      <trkpt lat="44.55669" lon="1.76891">
        <ele>196.73</ele>
        <time>2025-02-23T14:35:25.714Z</time>
      </trkpt>
      <trkpt lat="44.5566" lon="1.76899">
        <ele>195.73</ele>
        <time>2025-02-23T14:35:36.189Z</time>
      </trkpt>
      <trkpt lat="44.55649" lon="1.76901">
        <ele>191.74</ele>
        <time>2025-02-23T14:35:46.221Z</time>
      </trkpt>
      <trkpt lat="44.5564" lon="1.769">
        <ele>189.73</ele>
        <time>2025-02-23T14:35:56.637Z</time>
      </trkpt>
      <trkpt lat="44.55638" lon="1.76898">
        <ele>184.79</ele>
        <time>2025-02-23T14:36:07.217Z</time>
      </trkpt>
      <trkpt lat="44.55629" lon="1.76899">
        <ele>183.73</ele>
        <time>2025-02-23T14:36:17.594Z</time>
      </trkpt>
      <trkpt lat="44.5562" lon="1.76904">
        <ele>181.73</ele>
        <time>2025-02-23T14:36:27.746Z</time>
      </trkpt>
      <trkpt lat="44.55607" lon="1.76904">
        <ele>182.67</ele>
        <time>2025-02-23T14:36:38.173Z</time>
      </trkpt>
      <trkpt lat="44.55596" lon="1.76907">
        <ele>179.79</ele>
        <time>2025-02-23T14:36:48.745Z</time>
      </trkpt>
      <trkpt lat="44.55585" lon="1.76908">
        <ele>176.98</ele>
        <time>2025-02-23T14:36:59.180Z</time>
      </trkpt>
      <trkpt lat="44.55575" lon="1.76914">
        <ele>174.73</ele>
        <time>2025-02-23T14:37:09.515Z</time>
      </trkpt>
      <trkpt lat="44.55565" lon="1.76918">
        <ele>173.73</ele>
        <time>2025-02-23T14:37:19.963Z</time>
      </trkpt>
      <trkpt lat="44.55554" lon="1.76925">
        <ele>171.73</ele>
        <time>2025-02-23T14:37:30.180Z</time>
      </trkpt>
      <trkpt lat="44.55543" lon="1.76935">
        <ele>171.73</ele>
        <time>2025-02-23T14:37:41.033Z</time>
      </trkpt>
      <trkpt lat="44.55534" lon="1.76944">
        <ele>171.73</ele>
        <time>2025-02-23T14:37:52.064Z</time>
      </trkpt>
      <trkpt lat="44.55529" lon="1.76945">
        <ele>169.74</ele>
        <time>2025-02-23T14:38:02.187Z</time>
      </trkpt>
      <trkpt lat="44.55528" lon="1.76947">
        <ele>169.92</ele>
        <time>2025-02-23T14:38:52.173Z</time>
      </trkpt>
      <trkpt lat="44.55519" lon="1.76959">
        <ele>167.74</ele>
        <time>2025-02-23T14:39:02.200Z</time>
      </trkpt>
      <trkpt lat="44.55508" lon="1.76966">
        <ele>169.67</ele>
        <time>2025-02-23T14:39:12.734Z</time>
      </trkpt>
      <trkpt lat="44.55497" lon="1.76972">
        <ele>169.71</ele>
        <time>2025-02-23T14:39:23.230Z</time>
      </trkpt>
      <trkpt lat="44.55486" lon="1.76981">
        <ele>169.67</ele>
        <time>2025-02-23T14:39:33.655Z</time>
      </trkpt>
      <trkpt lat="44.55474" lon="1.76983">
        <ele>169.73</ele>
        <time>2025-02-23T14:39:44.225Z</time>
      </trkpt>
      <trkpt lat="44.55462" lon="1.76984">
        <ele>171.73</ele>
        <time>2025-02-23T14:39:55.094Z</time>
      </trkpt>
      <trkpt lat="44.55448" lon="1.7699">
        <ele>167.98</ele>
        <time>2025-02-23T14:40:05.995Z</time>
      </trkpt>
      <trkpt lat="44.55437" lon="1.76995">
        <ele>168.73</ele>
        <time>2025-02-23T14:40:16.183Z</time>
      </trkpt>
      <trkpt lat="44.55428" lon="1.77003">
        <ele>164.73</ele>
        <time>2025-02-23T14:40:26.474Z</time>
      </trkpt>
      <trkpt lat="44.55419" lon="1.77008">
        <ele>164.73</ele>
        <time>2025-02-23T14:40:36.505Z</time>
      </trkpt>
      <trkpt lat="44.55409" lon="1.77014">
        <ele>164.73</ele>
        <time>2025-02-23T14:40:46.614Z</time>
      </trkpt>
      <trkpt lat="44.55397" lon="1.77017">
        <ele>162.73</ele>
        <time>2025-02-23T14:40:57.054Z</time>
      </trkpt>
      <trkpt lat="44.55387" lon="1.77023">
        <ele>161.98</ele>
        <time>2025-02-23T14:41:07.676Z</time>
      </trkpt>
      <trkpt lat="44.55378" lon="1.77029">
        <ele>156.74</ele>
        <time>2025-02-23T14:41:17.799Z</time>
      </trkpt>
      <trkpt lat="44.55371" lon="1.77036">
        <ele>157.73</ele>
        <time>2025-02-23T14:41:27.939Z</time>
      </trkpt>
      <trkpt lat="44.55364" lon="1.77049">
        <ele>159.66</ele>
        <time>2025-02-23T14:41:38.954Z</time>
      </trkpt>
      <trkpt lat="44.55358" lon="1.77061">
        <ele>159.79</ele>
        <time>2025-02-23T14:41:49.084Z</time>
      </trkpt>
      <trkpt lat="44.55361" lon="1.77068">
        <ele>157.76</ele>
        <time>2025-02-23T14:41:59.475Z</time>
      </trkpt>
      <trkpt lat="44.55364" lon="1.7708">
        <ele>154.73</ele>
        <time>2025-02-23T14:42:10.191Z</time>
      </trkpt>
      <trkpt lat="44.55364" lon="1.77092">
        <ele>152.73</ele>
        <time>2025-02-23T14:42:20.753Z</time>
      </trkpt>
      <trkpt lat="44.55363" lon="1.77105">
        <ele>149.98</ele>
        <time>2025-02-23T14:42:30.795Z</time>
      </trkpt>
      <trkpt lat="44.55364" lon="1.77116">
        <ele>147.98</ele>
        <time>2025-02-23T14:42:41.163Z</time>
      </trkpt>
      <trkpt lat="44.55367" lon="1.77126">
        <ele>148.73</ele>
        <time>2025-02-23T14:42:51.168Z</time>
      </trkpt>
      <trkpt lat="44.55369" lon="1.77128">
        <ele>147.73</ele>
        <time>2025-02-23T14:43:02.166Z</time>
      </trkpt>
      <trkpt lat="44.55369" lon="1.77129">
        <ele>147.74</ele>
        <time>2025-02-23T14:43:43.162Z</time>
      </trkpt>
      <trkpt lat="44.55368" lon="1.77142">
        <ele>146.72</ele>
        <time>2025-02-23T14:43:53.177Z</time>
      </trkpt>
      <trkpt lat="44.55365" lon="1.77157">
        <ele>144.73</ele>
        <time>2025-02-23T14:44:03.444Z</time>
      </trkpt>
      <trkpt lat="44.55364" lon="1.77174">
        <ele>143.79</ele>
        <time>2025-02-23T14:44:13.683Z</time>
      </trkpt>
      <trkpt lat="44.55362" lon="1.77189">
        <ele>144.91</ele>
        <time>2025-02-23T14:44:23.995Z</time>
      </trkpt>
      <trkpt lat="44.55361" lon="1.77204">
        <ele>143.74</ele>
        <time>2025-02-23T14:44:34.175Z</time>
      </trkpt>
      <trkpt lat="44.55358" lon="1.77222">
        <ele>144.72</ele>
        <time>2025-02-23T14:44:44.434Z</time>
      </trkpt>
      <trkpt lat="44.55355" lon="1.77238">
        <ele>144.79</ele>
        <time>2025-02-23T14:44:54.995Z</time>
      </trkpt>
      <trkpt lat="44.55355" lon="1.77244">
        <ele>143.72</ele>
        <time>2025-02-23T14:45:05.172Z</time>
      </trkpt>
      <trkpt lat="44.55353" lon="1.77247">
        <ele>144.72</ele>
        <time>2025-02-23T14:45:15.634Z</time>
      </trkpt>
      <trkpt lat="44.55352" lon="1.77249">
        <ele>143.72</ele>
        <time>2025-02-23T14:45:25.734Z</time>
      </trkpt>
      <trkpt lat="44.55351" lon="1.7725">
        <ele>142.97</ele>
        <time>2025-02-23T14:45:37.677Z</time>
      </trkpt>
      <trkpt lat="44.55345" lon="1.77245">
        <ele>142.72</ele>
        <time>2025-02-23T14:45:48.192Z</time>
      </trkpt>
      <trkpt lat="44.55345" lon="1.77244">
        <ele>142.72</ele>
        <time>2025-02-23T14:45:58.200Z</time>
      </trkpt>
      <trkpt lat="44.55347" lon="1.77244">
        <ele>143.66</ele>
        <time>2025-02-23T14:46:24.160Z</time>
      </trkpt>
      <trkpt lat="44.55345" lon="1.77245">
        <ele>145.47</ele>
        <time>2025-02-23T14:46:44.181Z</time>
      </trkpt>
      <trkpt lat="44.55346" lon="1.77244">
        <ele>146.47</ele>
        <time>2025-02-23T14:46:55.191Z</time>
      </trkpt>
      <trkpt lat="44.55345" lon="1.77244">
        <ele>149.71</ele>
        <time>2025-02-23T14:47:08.177Z</time>
      </trkpt>
      <trkpt lat="44.55344" lon="1.77242">
        <ele>150.72</ele>
        <time>2025-02-23T14:47:19.163Z</time>
      </trkpt>
      <trkpt lat="44.55347" lon="1.77247">
        <ele>154.63</ele>
        <time>2025-02-23T14:47:29.165Z</time>
      </trkpt>
      <trkpt lat="44.55347" lon="1.77248">
        <ele>152.72</ele>
        <time>2025-02-23T14:47:40.172Z</time>
      </trkpt>
      <trkpt lat="44.55348" lon="1.77248">
        <ele>147.97</ele>
        <time>2025-02-23T14:50:48.169Z</time>
      </trkpt>
      <trkpt lat="44.55346" lon="1.77247">
        <ele>143.81</ele>
        <time>2025-02-23T14:51:08.186Z</time>
      </trkpt>
      <trkpt lat="44.55346" lon="1.77246">
        <ele>142.72</ele>
        <time>2025-02-23T14:51:18.973Z</time>
      </trkpt>
      <trkpt lat="44.55353" lon="1.77229">
        <ele>141.72</ele>
        <time>2025-02-23T14:51:29.213Z</time>
      </trkpt>
      <trkpt lat="44.55357" lon="1.77212">
        <ele>141.72</ele>
        <time>2025-02-23T14:51:39.653Z</time>
      </trkpt>
      <trkpt lat="44.55362" lon="1.77194">
        <ele>140.72</ele>
        <time>2025-02-23T14:51:50.075Z</time>
      </trkpt>
      <trkpt lat="44.55365" lon="1.77176">
        <ele>139.72</ele>
        <time>2025-02-23T14:52:00.894Z</time>
      </trkpt>
      <trkpt lat="44.55368" lon="1.77161">
        <ele>138.72</ele>
        <time>2025-02-23T14:52:11.248Z</time>
      </trkpt>
      <trkpt lat="44.55375" lon="1.77155">
        <ele>138.72</ele>
        <time>2025-02-23T14:52:21.595Z</time>
      </trkpt>
      <trkpt lat="44.55385" lon="1.7715">
        <ele>139.79</ele>
        <time>2025-02-23T14:52:31.794Z</time>
      </trkpt>
      <trkpt lat="44.55391" lon="1.7713">
        <ele>141.48</ele>
        <time>2025-02-23T14:52:42.180Z</time>
      </trkpt>
      <trkpt lat="44.55402" lon="1.77121">
        <ele>141.73</ele>
        <time>2025-02-23T14:52:52.180Z</time>
      </trkpt>
      <trkpt lat="44.55415" lon="1.77117">
        <ele>141.73</ele>
        <time>2025-02-23T14:53:02.855Z</time>
      </trkpt>
      <trkpt lat="44.55428" lon="1.77112">
        <ele>139.73</ele>
        <time>2025-02-23T14:53:13.335Z</time>
      </trkpt>
      <trkpt lat="44.55443" lon="1.77109">
        <ele>139.78</ele>
        <time>2025-02-23T14:53:23.895Z</time>
      </trkpt>
      <trkpt lat="44.55457" lon="1.77106">
        <ele>137.73</ele>
        <time>2025-02-23T14:53:34.497Z</time>
      </trkpt>
      <trkpt lat="44.55471" lon="1.77102">
        <ele>137.73</ele>
        <time>2025-02-23T14:53:45.015Z</time>
      </trkpt>
      <trkpt lat="44.55485" lon="1.77098">
        <ele>137.73</ele>
        <time>2025-02-23T14:53:55.191Z</time>
      </trkpt>
      <trkpt lat="44.55498" lon="1.77093">
        <ele>138.49</ele>
        <time>2025-02-23T14:54:06.174Z</time>
      </trkpt>
      <trkpt lat="44.55512" lon="1.7709">
        <ele>138.73</ele>
        <time>2025-02-23T14:54:16.783Z</time>
      </trkpt>
      <trkpt lat="44.55526" lon="1.77086">
        <ele>141.47</ele>
        <time>2025-02-23T14:54:27.211Z</time>
      </trkpt>
      <trkpt lat="44.55538" lon="1.77086">
        <ele>143.71</ele>
        <time>2025-02-23T14:54:37.684Z</time>
      </trkpt>
      <trkpt lat="44.55551" lon="1.77079">
        <ele>143.73</ele>
        <time>2025-02-23T14:54:48.194Z</time>
      </trkpt>
      <trkpt lat="44.55565" lon="1.77073">
        <ele>143.73</ele>
        <time>2025-02-23T14:54:59.180Z</time>
      </trkpt>
      <trkpt lat="44.55574" lon="1.77071">
        <ele>142.73</ele>
        <time>2025-02-23T14:55:09.664Z</time>
      </trkpt>
      <trkpt lat="44.55588" lon="1.77067">
        <ele>142.54</ele>
        <time>2025-02-23T14:55:20.181Z</time>
      </trkpt>
      <trkpt lat="44.55601" lon="1.77065">
        <ele>144.72</ele>
        <time>2025-02-23T14:55:30.181Z</time>
      </trkpt>
      <trkpt lat="44.55615" lon="1.77064">
        <ele>144.73</ele>
        <time>2025-02-23T14:55:40.964Z</time>
      </trkpt>
      <trkpt lat="44.55628" lon="1.77057">
        <ele>145.73</ele>
        <time>2025-02-23T14:55:51.435Z</time>
      </trkpt>
      <trkpt lat="44.55641" lon="1.77051">
        <ele>146.71</ele>
        <time>2025-02-23T14:56:01.963Z</time>
      </trkpt>
      <trkpt lat="44.55655" lon="1.77045">
        <ele>146.73</ele>
        <time>2025-02-23T14:56:12.186Z</time>
      </trkpt>
      <trkpt lat="44.55668" lon="1.77039">
        <ele>146.73</ele>
        <time>2025-02-23T14:56:23.074Z</time>
      </trkpt>
      <trkpt lat="44.55681" lon="1.77031">
        <ele>146.67</ele>
        <time>2025-02-23T14:56:33.196Z</time>
      </trkpt>
      <trkpt lat="44.55694" lon="1.77022">
        <ele>146.73</ele>
        <time>2025-02-23T14:56:43.210Z</time>
      </trkpt>
      <trkpt lat="44.55708" lon="1.77016">
        <ele>147.73</ele>
        <time>2025-02-23T14:56:53.954Z</time>
      </trkpt>
      <trkpt lat="44.5572" lon="1.77011">
        <ele>148.73</ele>
        <time>2025-02-23T14:57:04.165Z</time>
      </trkpt>
      <trkpt lat="44.55733" lon="1.77005">
        <ele>148.74</ele>
        <time>2025-02-23T14:57:14.183Z</time>
      </trkpt>
      <trkpt lat="44.55746" lon="1.76995">
        <ele>148.78</ele>
        <time>2025-02-23T14:57:25.135Z</time>
      </trkpt>
      <trkpt lat="44.5576" lon="1.76986">
        <ele>149.96</ele>
        <time>2025-02-23T14:57:35.475Z</time>
      </trkpt>
      <trkpt lat="44.55772" lon="1.76977">
        <ele>149.73</ele>
        <time>2025-02-23T14:57:45.935Z</time>
      </trkpt>
      <trkpt lat="44.55785" lon="1.7697">
        <ele>149.73</ele>
        <time>2025-02-23T14:57:56.373Z</time>
      </trkpt>
      <trkpt lat="44.55797" lon="1.76961">
        <ele>150.67</ele>
        <time>2025-02-23T14:58:06.934Z</time>
      </trkpt>
      <trkpt lat="44.55809" lon="1.76951">
        <ele>150.73</ele>
        <time>2025-02-23T14:58:17.177Z</time>
      </trkpt>
      <trkpt lat="44.55822" lon="1.76943">
        <ele>150.73</ele>
        <time>2025-02-23T14:58:27.794Z</time>
      </trkpt>
      <trkpt lat="44.55834" lon="1.76936">
        <ele>149.73</ele>
        <time>2025-02-23T14:58:38.134Z</time>
      </trkpt>
      <trkpt lat="44.55846" lon="1.76927">
        <ele>148.73</ele>
        <time>2025-02-23T14:58:48.574Z</time>
      </trkpt>
      <trkpt lat="44.5586" lon="1.76919">
        <ele>148.73</ele>
        <time>2025-02-23T14:58:58.956Z</time>
      </trkpt>
      <trkpt lat="44.55873" lon="1.76915">
        <ele>149.49</ele>
        <time>2025-02-23T14:59:09.191Z</time>
      </trkpt>
      <trkpt lat="44.55885" lon="1.76908">
        <ele>148.73</ele>
        <time>2025-02-23T14:59:19.197Z</time>
      </trkpt>
      <trkpt lat="44.55901" lon="1.76905">
        <ele>149.73</ele>
        <time>2025-02-23T14:59:30.134Z</time>
      </trkpt>
      <trkpt lat="44.55914" lon="1.76901">
        <ele>148.92</ele>
        <time>2025-02-23T14:59:40.165Z</time>
      </trkpt>
      <trkpt lat="44.55928" lon="1.769">
        <ele>149.73</ele>
        <time>2025-02-23T14:59:50.178Z</time>
      </trkpt>
      <trkpt lat="44.55943" lon="1.76897">
        <ele>147.98</ele>
        <time>2025-02-23T15:00:00.814Z</time>
      </trkpt>
      <trkpt lat="44.55958" lon="1.76893">
        <ele>145.73</ele>
        <time>2025-02-23T15:00:10.996Z</time>
      </trkpt>
      <trkpt lat="44.55973" lon="1.76892">
        <ele>142.79</ele>
        <time>2025-02-23T15:00:21.183Z</time>
      </trkpt>
      <trkpt lat="44.55988" lon="1.76887">
        <ele>140.73</ele>
        <time>2025-02-23T15:00:31.897Z</time>
      </trkpt>
      <trkpt lat="44.56001" lon="1.76886">
        <ele>139.73</ele>
        <time>2025-02-23T15:00:42.166Z</time>
      </trkpt>
      <trkpt lat="44.56015" lon="1.76885">
        <ele>140.68</ele>
        <time>2025-02-23T15:00:52.171Z</time>
      </trkpt>
      <trkpt lat="44.56028" lon="1.76888">
        <ele>140.73</ele>
        <time>2025-02-23T15:01:02.644Z</time>
      </trkpt>
      <trkpt lat="44.56041" lon="1.76886">
        <ele>141.73</ele>
        <time>2025-02-23T15:01:12.815Z</time>
      </trkpt>
      <trkpt lat="44.56056" lon="1.76889">
        <ele>142.73</ele>
        <time>2025-02-23T15:01:23.056Z</time>
      </trkpt>
      <trkpt lat="44.5607" lon="1.7689">
        <ele>142.96</ele>
        <time>2025-02-23T15:01:33.185Z</time>
      </trkpt>
      <trkpt lat="44.56085" lon="1.76894">
        <ele>144.48</ele>
        <time>2025-02-23T15:01:43.191Z</time>
      </trkpt>
      <trkpt lat="44.56099" lon="1.76898">
        <ele>144.73</ele>
        <time>2025-02-23T15:01:54.034Z</time>
      </trkpt>
      <trkpt lat="44.56111" lon="1.76904">
        <ele>145.54</ele>
        <time>2025-02-23T15:02:04.163Z</time>
      </trkpt>
      <trkpt lat="44.56124" lon="1.76912">
        <ele>144.75</ele>
        <time>2025-02-23T15:02:14.795Z</time>
      </trkpt>
      <trkpt lat="44.56138" lon="1.76921">
        <ele>146.67</ele>
        <time>2025-02-23T15:02:25.182Z</time>
      </trkpt>
      <trkpt lat="44.56149" lon="1.76931">
        <ele>146.67</ele>
        <time>2025-02-23T15:02:35.186Z</time>
      </trkpt>
      <trkpt lat="44.56162" lon="1.76946">
        <ele>147.73</ele>
        <time>2025-02-23T15:02:46.074Z</time>
      </trkpt>
      <trkpt lat="44.56174" lon="1.76959">
        <ele>148.72</ele>
        <time>2025-02-23T15:02:56.414Z</time>
      </trkpt>
      <trkpt lat="44.56185" lon="1.76975">
        <ele>148.79</ele>
        <time>2025-02-23T15:03:06.635Z</time>
      </trkpt>
      <trkpt lat="44.56193" lon="1.76992">
        <ele>149.73</ele>
        <time>2025-02-23T15:03:16.955Z</time>
      </trkpt>
      <trkpt lat="44.56193" lon="1.76995">
        <ele>149.73</ele>
        <time>2025-02-23T15:03:27.191Z</time>
      </trkpt>
      <trkpt lat="44.56197" lon="1.77009">
        <ele>146.73</ele>
        <time>2025-02-23T15:03:37.835Z</time>
      </trkpt>
      <trkpt lat="44.56202" lon="1.77025">
        <ele>146.72</ele>
        <time>2025-02-23T15:03:48.188Z</time>
      </trkpt>
      <trkpt lat="44.56204" lon="1.77044">
        <ele>145.98</ele>
        <time>2025-02-23T15:03:59.105Z</time>
      </trkpt>
      <trkpt lat="44.56206" lon="1.77065">
        <ele>146.73</ele>
        <time>2025-02-23T15:04:09.654Z</time>
      </trkpt>
      <trkpt lat="44.56205" lon="1.77083">
        <ele>146.73</ele>
        <time>2025-02-23T15:04:19.736Z</time>
      </trkpt>
      <trkpt lat="44.56204" lon="1.77097">
        <ele>144.74</ele>
        <time>2025-02-23T15:04:30.168Z</time>
      </trkpt>
      <trkpt lat="44.56202" lon="1.77109">
        <ele>144.73</ele>
        <time>2025-02-23T15:04:40.474Z</time>
      </trkpt>
      <trkpt lat="44.56196" lon="1.7712">
        <ele>143.73</ele>
        <time>2025-02-23T15:04:51.181Z</time>
      </trkpt>
      <trkpt lat="44.56194" lon="1.77108">
        <ele>141.66</ele>
        <time>2025-02-23T15:05:01.201Z</time>
      </trkpt>
      <trkpt lat="44.56195" lon="1.77108">
        <ele>138.74</ele>
        <time>2025-02-23T15:05:18.165Z</time>
      </trkpt>
    </trkseg>
  </trk>
</gpx>